<?xml version="1.0" encoding="UTF-8"?>
<gpx version="1.1" creator="https://www.youtrack.es" xsi:schemaLocation="http://www.topografix.com/GPX/1/1 http://www.topografix.com/GPX/1/1/gpx.xsd http://www.garmin.com/xmlschemas/GpxExtensions/v3 http://www.garmin.com/xmlschemas/GpxExtensionsv3.xsd http://www.garmin.com/xmlschemas/TrackPointExtension/v1 http://www.garmin.com/xmlschemas/TrackPointExtensionv1.xsd" xmlns:gpxtpx="http://www.garmin.com/xmlschemas/TrackPointExtension/v1" xmlns:gpxx="http://www.garmin.com/xmlschemas/GpxExtensions/v3" xmlns:xsi="http://www.w3.org/2001/XMLSchema-instance">
  <metadata>
    <link href="https://www.youtrack.es">
      <text>YouTrack.es</text>
    </link>
    <time>2026-05-07T22:52:16Z</time>
  </metadata>
  <trk>
    <src>https://www.youtrack.es</src>
    <link href="https://www.youtrack.es/ruta/7712-olargues">
      <text>YouTrack.es</text>
    </link>
    <trkseg>
      <trkpt lat="43.58197535" lon="3.011664580">
        <ele>258.00000</ele>
        <time>2019-08-19T09:51:15Z</time>
      </trkpt>
      <trkpt lat="43.58180771" lon="3.011763989">
        <ele>258.00000</ele>
        <time>2019-08-19T09:51:40Z</time>
      </trkpt>
      <trkpt lat="43.58177016" lon="3.011563662">
        <ele>250.00000</ele>
        <time>2019-08-19T09:52:26Z</time>
      </trkpt>
      <trkpt lat="43.58162691" lon="3.011680506">
        <ele>249.00000</ele>
        <time>2019-08-19T09:52:46Z</time>
      </trkpt>
      <trkpt lat="43.58144192" lon="3.011711016">
        <ele>250.00000</ele>
        <time>2019-08-19T09:53:04Z</time>
      </trkpt>
      <trkpt lat="43.58129038" lon="3.011835403">
        <ele>249.00000</ele>
        <time>2019-08-19T09:53:19Z</time>
      </trkpt>
      <trkpt lat="43.58123774" lon="3.011921569">
        <ele>250.00000</ele>
        <time>2019-08-19T09:53:29Z</time>
      </trkpt>
      <trkpt lat="43.58116331" lon="3.011968927">
        <ele>251.00000</ele>
        <time>2019-08-19T09:53:38Z</time>
      </trkpt>
      <trkpt lat="43.58110640" lon="3.012003460">
        <ele>251.00000</ele>
        <time>2019-08-19T09:53:45Z</time>
      </trkpt>
      <trkpt lat="43.58105820" lon="3.011928191">
        <ele>250.00000</ele>
        <time>2019-08-19T09:54:23Z</time>
      </trkpt>
      <trkpt lat="43.58123011" lon="3.011851664">
        <ele>272.00000</ele>
        <time>2019-08-19T09:55:18Z</time>
      </trkpt>
      <trkpt lat="43.58123330" lon="3.011610517">
        <ele>278.00000</ele>
        <time>2019-08-19T09:55:44Z</time>
      </trkpt>
      <trkpt lat="43.58132131" lon="3.011586880">
        <ele>283.00000</ele>
        <time>2019-08-19T09:56:05Z</time>
      </trkpt>
      <trkpt lat="43.58151376" lon="3.011611942">
        <ele>290.00000</ele>
        <time>2019-08-19T09:56:32Z</time>
      </trkpt>
      <trkpt lat="43.58168500" lon="3.011517645">
        <ele>293.00000</ele>
        <time>2019-08-19T09:56:50Z</time>
      </trkpt>
      <trkpt lat="43.58185163" lon="3.011385966">
        <ele>296.00000</ele>
        <time>2019-08-19T09:57:10Z</time>
      </trkpt>
      <trkpt lat="43.58203251" lon="3.011349169">
        <ele>298.00000</ele>
        <time>2019-08-19T09:57:26Z</time>
      </trkpt>
      <trkpt lat="43.58219630" lon="3.011228134">
        <ele>299.00000</ele>
        <time>2019-08-19T09:57:42Z</time>
      </trkpt>
      <trkpt lat="43.58238765" lon="3.011227296">
        <ele>300.00000</ele>
        <time>2019-08-19T09:57:58Z</time>
      </trkpt>
      <trkpt lat="43.58256887" lon="3.011185554">
        <ele>301.00000</ele>
        <time>2019-08-19T09:58:17Z</time>
      </trkpt>
      <trkpt lat="43.58270893" lon="3.011088408">
        <ele>299.00000</ele>
        <time>2019-08-19T09:58:47Z</time>
      </trkpt>
      <trkpt lat="43.58287883" lon="3.010975839">
        <ele>298.00000</ele>
        <time>2019-08-19T09:58:58Z</time>
      </trkpt>
      <trkpt lat="43.58304664" lon="3.010881124">
        <ele>297.00000</ele>
        <time>2019-08-19T09:59:18Z</time>
      </trkpt>
      <trkpt lat="43.58313146" lon="3.010683814">
        <ele>295.00000</ele>
        <time>2019-08-19T09:59:42Z</time>
      </trkpt>
      <trkpt lat="43.58330137" lon="3.010616255">
        <ele>295.00000</ele>
        <time>2019-08-19T10:00:01Z</time>
      </trkpt>
      <trkpt lat="43.58347646" lon="3.010555570">
        <ele>295.00000</ele>
        <time>2019-08-19T10:00:22Z</time>
      </trkpt>
      <trkpt lat="43.58355081" lon="3.010576190">
        <ele>295.00000</ele>
        <time>2019-08-19T10:00:39Z</time>
      </trkpt>
      <trkpt lat="43.58358970" lon="3.010499328">
        <ele>290.00000</ele>
        <time>2019-08-19T10:01:58Z</time>
      </trkpt>
      <trkpt lat="43.58363572" lon="3.010476026">
        <ele>289.00000</ele>
        <time>2019-08-19T10:02:04Z</time>
      </trkpt>
      <trkpt lat="43.58376673" lon="3.010306796">
        <ele>285.00000</ele>
        <time>2019-08-19T10:02:37Z</time>
      </trkpt>
      <trkpt lat="43.58376983" lon="3.010297324">
        <ele>284.00000</ele>
        <time>2019-08-19T10:02:38Z</time>
      </trkpt>
      <trkpt lat="43.58395415" lon="3.010266143">
        <ele>281.00000</ele>
        <time>2019-08-19T10:03:03Z</time>
      </trkpt>
      <trkpt lat="43.58414123" lon="3.010278968">
        <ele>279.00000</ele>
        <time>2019-08-19T10:03:21Z</time>
      </trkpt>
      <trkpt lat="43.58432379" lon="3.010264048">
        <ele>281.00000</ele>
        <time>2019-08-19T10:03:42Z</time>
      </trkpt>
      <trkpt lat="43.58445874" lon="3.010097583">
        <ele>283.00000</ele>
        <time>2019-08-19T10:04:05Z</time>
      </trkpt>
      <trkpt lat="43.58451968" lon="3.010065648">
        <ele>282.00000</ele>
        <time>2019-08-19T10:04:12Z</time>
      </trkpt>
      <trkpt lat="43.58461464" lon="3.009844031">
        <ele>283.00000</ele>
        <time>2019-08-19T10:04:36Z</time>
      </trkpt>
      <trkpt lat="43.58473903" lon="3.009656695">
        <ele>284.00000</ele>
        <time>2019-08-19T10:04:51Z</time>
      </trkpt>
      <trkpt lat="43.58478882" lon="3.009593999">
        <ele>285.00000</ele>
        <time>2019-08-19T10:04:59Z</time>
      </trkpt>
      <trkpt lat="43.58494757" lon="3.009452847">
        <ele>286.00000</ele>
        <time>2019-08-19T10:05:16Z</time>
      </trkpt>
      <trkpt lat="43.58509786" lon="3.009353019">
        <ele>288.00000</ele>
        <time>2019-08-19T10:05:30Z</time>
      </trkpt>
      <trkpt lat="43.58515544" lon="3.009345727">
        <ele>289.00000</ele>
        <time>2019-08-19T10:05:35Z</time>
      </trkpt>
      <trkpt lat="43.58518629" lon="3.009300632">
        <ele>290.00000</ele>
        <time>2019-08-19T10:05:40Z</time>
      </trkpt>
      <trkpt lat="43.58535049" lon="3.009213628">
        <ele>297.00000</ele>
        <time>2019-08-19T10:06:01Z</time>
      </trkpt>
      <trkpt lat="43.58539802" lon="3.009223518">
        <ele>299.00000</ele>
        <time>2019-08-19T10:06:06Z</time>
      </trkpt>
      <trkpt lat="43.58550153" lon="3.009180016">
        <ele>303.00000</ele>
        <time>2019-08-19T10:06:21Z</time>
      </trkpt>
      <trkpt lat="43.58555870" lon="3.009180687">
        <ele>304.00000</ele>
        <time>2019-08-19T10:06:26Z</time>
      </trkpt>
      <trkpt lat="43.58559239" lon="3.009147411">
        <ele>305.00000</ele>
        <time>2019-08-19T10:06:30Z</time>
      </trkpt>
      <trkpt lat="43.58574494" lon="3.009032746">
        <ele>307.00000</ele>
        <time>2019-08-19T10:06:47Z</time>
      </trkpt>
      <trkpt lat="43.58578870" lon="3.008987065">
        <ele>308.00000</ele>
        <time>2019-08-19T10:06:55Z</time>
      </trkpt>
      <trkpt lat="43.58587017" lon="3.008831664">
        <ele>310.00000</ele>
        <time>2019-08-19T10:07:32Z</time>
      </trkpt>
      <trkpt lat="43.58594628" lon="3.008745415">
        <ele>311.00000</ele>
        <time>2019-08-19T10:07:42Z</time>
      </trkpt>
      <trkpt lat="43.58602565" lon="3.008680623">
        <ele>311.00000</ele>
        <time>2019-08-19T10:07:51Z</time>
      </trkpt>
      <trkpt lat="43.58604258" lon="3.008653549">
        <ele>311.00000</ele>
        <time>2019-08-19T10:07:53Z</time>
      </trkpt>
      <trkpt lat="43.58614409" lon="3.008551206">
        <ele>311.00000</ele>
        <time>2019-08-19T10:08:09Z</time>
      </trkpt>
      <trkpt lat="43.58627334" lon="3.008533604">
        <ele>313.00000</ele>
        <time>2019-08-19T10:08:31Z</time>
      </trkpt>
      <trkpt lat="43.58632924" lon="3.008509967">
        <ele>314.00000</ele>
        <time>2019-08-19T10:08:37Z</time>
      </trkpt>
      <trkpt lat="43.58646268" lon="3.008453138">
        <ele>319.00000</ele>
        <time>2019-08-19T10:09:08Z</time>
      </trkpt>
      <trkpt lat="43.58661641" lon="3.008507452">
        <ele>323.00000</ele>
        <time>2019-08-19T10:09:37Z</time>
      </trkpt>
      <trkpt lat="43.58676829" lon="3.008554391">
        <ele>327.00000</ele>
        <time>2019-08-19T10:10:00Z</time>
      </trkpt>
      <trkpt lat="43.58694389" lon="3.008509129">
        <ele>330.00000</ele>
        <time>2019-08-19T10:10:24Z</time>
      </trkpt>
      <trkpt lat="43.58711941" lon="3.008490437">
        <ele>335.00000</ele>
        <time>2019-08-19T10:10:47Z</time>
      </trkpt>
      <trkpt lat="43.58728864" lon="3.008428243">
        <ele>340.00000</ele>
        <time>2019-08-19T10:11:09Z</time>
      </trkpt>
      <trkpt lat="43.58735871" lon="3.008419694">
        <ele>341.00000</ele>
        <time>2019-08-19T10:11:16Z</time>
      </trkpt>
      <trkpt lat="43.58753724" lon="3.008475182">
        <ele>345.00000</ele>
        <time>2019-08-19T10:11:32Z</time>
      </trkpt>
      <trkpt lat="43.58770237" lon="3.008536286">
        <ele>350.00000</ele>
        <time>2019-08-19T10:11:57Z</time>
      </trkpt>
      <trkpt lat="43.58788484" lon="3.008488845">
        <ele>356.00000</ele>
        <time>2019-08-19T10:12:24Z</time>
      </trkpt>
      <trkpt lat="43.58795860" lon="3.008518097">
        <ele>357.00000</ele>
        <time>2019-08-19T10:12:33Z</time>
      </trkpt>
      <trkpt lat="43.58813269" lon="3.008596971">
        <ele>358.00000</ele>
        <time>2019-08-19T10:12:48Z</time>
      </trkpt>
      <trkpt lat="43.58822330" lon="3.008608790">
        <ele>358.00000</ele>
        <time>2019-08-19T10:12:54Z</time>
      </trkpt>
      <trkpt lat="43.58827753" lon="3.008605102">
        <ele>358.00000</ele>
        <time>2019-08-19T10:12:59Z</time>
      </trkpt>
      <trkpt lat="43.58830519" lon="3.008618848">
        <ele>357.00000</ele>
        <time>2019-08-19T10:13:01Z</time>
      </trkpt>
      <trkpt lat="43.58835473" lon="3.008659584">
        <ele>357.00000</ele>
        <time>2019-08-19T10:13:07Z</time>
      </trkpt>
      <trkpt lat="43.58852790" lon="3.008577106">
        <ele>357.00000</ele>
        <time>2019-08-19T10:13:26Z</time>
      </trkpt>
      <trkpt lat="43.58854173" lon="3.008581800">
        <ele>357.00000</ele>
        <time>2019-08-19T10:13:27Z</time>
      </trkpt>
      <trkpt lat="43.58862941" lon="3.008575011">
        <ele>357.00000</ele>
        <time>2019-08-19T10:13:34Z</time>
      </trkpt>
      <trkpt lat="43.58881959" lon="3.008593032">
        <ele>360.00000</ele>
        <time>2019-08-19T10:13:54Z</time>
      </trkpt>
      <trkpt lat="43.58892395" lon="3.008543243">
        <ele>362.00000</ele>
        <time>2019-08-19T10:14:04Z</time>
      </trkpt>
      <trkpt lat="43.58910097" lon="3.008511727">
        <ele>364.00000</ele>
        <time>2019-08-19T10:14:23Z</time>
      </trkpt>
      <trkpt lat="43.58920382" lon="3.008539387">
        <ele>365.00000</ele>
        <time>2019-08-19T10:14:36Z</time>
      </trkpt>
      <trkpt lat="43.58938830" lon="3.008590266">
        <ele>365.00000</ele>
        <time>2019-08-19T10:14:51Z</time>
      </trkpt>
      <trkpt lat="43.58941295" lon="3.008590266">
        <ele>366.00000</ele>
        <time>2019-08-19T10:14:53Z</time>
      </trkpt>
      <trkpt lat="43.58949643" lon="3.008517511">
        <ele>367.00000</ele>
        <time>2019-08-19T10:15:01Z</time>
      </trkpt>
      <trkpt lat="43.58955552" lon="3.008511308">
        <ele>368.00000</ele>
        <time>2019-08-19T10:15:08Z</time>
      </trkpt>
      <trkpt lat="43.58968310" lon="3.008532850">
        <ele>368.00000</ele>
        <time>2019-08-19T10:15:17Z</time>
      </trkpt>
      <trkpt lat="43.58977178" lon="3.008484486">
        <ele>370.00000</ele>
        <time>2019-08-19T10:15:31Z</time>
      </trkpt>
      <trkpt lat="43.58985744" lon="3.008491611">
        <ele>370.00000</ele>
        <time>2019-08-19T10:15:41Z</time>
      </trkpt>
      <trkpt lat="43.59002667" lon="3.008418604">
        <ele>374.00000</ele>
        <time>2019-08-19T10:16:04Z</time>
      </trkpt>
      <trkpt lat="43.59005894" lon="3.008398236">
        <ele>374.00000</ele>
        <time>2019-08-19T10:16:08Z</time>
      </trkpt>
      <trkpt lat="43.59022867" lon="3.008477948">
        <ele>376.00000</ele>
        <time>2019-08-19T10:16:20Z</time>
      </trkpt>
      <trkpt lat="43.59026522" lon="3.008535867">
        <ele>376.00000</ele>
        <time>2019-08-19T10:16:38Z</time>
      </trkpt>
      <trkpt lat="43.59029120" lon="3.008436625">
        <ele>376.00000</ele>
        <time>2019-08-19T10:17:49Z</time>
      </trkpt>
      <trkpt lat="43.59044903" lon="3.008542321">
        <ele>376.00000</ele>
        <time>2019-08-19T10:18:20Z</time>
      </trkpt>
      <trkpt lat="43.59052271" lon="3.008530670">
        <ele>376.00000</ele>
        <time>2019-08-19T10:18:28Z</time>
      </trkpt>
      <trkpt lat="43.59055498" lon="3.008465375">
        <ele>376.00000</ele>
        <time>2019-08-19T10:18:33Z</time>
      </trkpt>
      <trkpt lat="43.59065406" lon="3.008400248">
        <ele>377.00000</ele>
        <time>2019-08-19T10:18:43Z</time>
      </trkpt>
      <trkpt lat="43.59066973" lon="3.008394800">
        <ele>377.00000</ele>
        <time>2019-08-19T10:18:46Z</time>
      </trkpt>
      <trkpt lat="43.59074718" lon="3.008435033">
        <ele>377.00000</ele>
        <time>2019-08-19T10:18:54Z</time>
      </trkpt>
      <trkpt lat="43.59080686" lon="3.008457412">
        <ele>377.00000</ele>
        <time>2019-08-19T10:19:00Z</time>
      </trkpt>
      <trkpt lat="43.59092940" lon="3.008367139">
        <ele>379.00000</ele>
        <time>2019-08-19T10:19:19Z</time>
      </trkpt>
      <trkpt lat="43.59096678" lon="3.008367223">
        <ele>379.00000</ele>
        <time>2019-08-19T10:19:22Z</time>
      </trkpt>
      <trkpt lat="43.59105781" lon="3.008359763">
        <ele>380.00000</ele>
        <time>2019-08-19T10:19:30Z</time>
      </trkpt>
      <trkpt lat="43.59107248" lon="3.008365882">
        <ele>380.00000</ele>
        <time>2019-08-19T10:19:31Z</time>
      </trkpt>
      <trkpt lat="43.59110869" lon="3.008386669">
        <ele>380.00000</ele>
        <time>2019-08-19T10:19:37Z</time>
      </trkpt>
      <trkpt lat="43.59111984" lon="3.008389770">
        <ele>380.00000</ele>
        <time>2019-08-19T10:19:39Z</time>
      </trkpt>
      <trkpt lat="43.59122771" lon="3.008278291">
        <ele>381.00000</ele>
        <time>2019-08-19T10:19:56Z</time>
      </trkpt>
      <trkpt lat="43.59131455" lon="3.008286589">
        <ele>383.00000</ele>
        <time>2019-08-19T10:20:06Z</time>
      </trkpt>
      <trkpt lat="43.59139217" lon="3.008285248">
        <ele>384.00000</ele>
        <time>2019-08-19T10:20:12Z</time>
      </trkpt>
      <trkpt lat="43.59146484" lon="3.008345765">
        <ele>385.00000</ele>
        <time>2019-08-19T10:20:17Z</time>
      </trkpt>
      <trkpt lat="43.59147892" lon="3.008361440">
        <ele>385.00000</ele>
        <time>2019-08-19T10:20:21Z</time>
      </trkpt>
      <trkpt lat="43.59156676" lon="3.008419694">
        <ele>385.00000</ele>
        <time>2019-08-19T10:20:33Z</time>
      </trkpt>
      <trkpt lat="43.59162242" lon="3.008469482">
        <ele>385.00000</ele>
        <time>2019-08-19T10:20:42Z</time>
      </trkpt>
      <trkpt lat="43.59172753" lon="3.008303018">
        <ele>387.00000</ele>
        <time>2019-08-19T10:21:16Z</time>
      </trkpt>
      <trkpt lat="43.59180196" lon="3.008317518">
        <ele>386.00000</ele>
        <time>2019-08-19T10:21:31Z</time>
      </trkpt>
      <trkpt lat="43.59184822" lon="3.008372168">
        <ele>387.00000</ele>
        <time>2019-08-19T10:21:38Z</time>
      </trkpt>
      <trkpt lat="43.59189206" lon="3.008411983">
        <ele>387.00000</ele>
        <time>2019-08-19T10:21:43Z</time>
      </trkpt>
      <trkpt lat="43.59200262" lon="3.008498232">
        <ele>388.00000</ele>
        <time>2019-08-19T10:21:56Z</time>
      </trkpt>
      <trkpt lat="43.59215928" lon="3.008462190">
        <ele>392.00000</ele>
        <time>2019-08-19T10:22:29Z</time>
      </trkpt>
      <trkpt lat="43.59217805" lon="3.008475769">
        <ele>392.00000</ele>
        <time>2019-08-19T10:22:31Z</time>
      </trkpt>
      <trkpt lat="43.59234779" lon="3.008453557">
        <ele>396.00000</ele>
        <time>2019-08-19T10:22:57Z</time>
      </trkpt>
      <trkpt lat="43.59252959" lon="3.008493790">
        <ele>400.00000</ele>
        <time>2019-08-19T10:23:29Z</time>
      </trkpt>
      <trkpt lat="43.59255323" lon="3.008496388">
        <ele>400.00000</ele>
        <time>2019-08-19T10:23:31Z</time>
      </trkpt>
      <trkpt lat="43.59262607" lon="3.008530754">
        <ele>400.00000</ele>
        <time>2019-08-19T10:23:37Z</time>
      </trkpt>
      <trkpt lat="43.59271357" lon="3.008517092">
        <ele>402.00000</ele>
        <time>2019-08-19T10:23:56Z</time>
      </trkpt>
      <trkpt lat="43.59285104" lon="3.008613567">
        <ele>402.00000</ele>
        <time>2019-08-19T10:24:17Z</time>
      </trkpt>
      <trkpt lat="43.59290988" lon="3.008591188">
        <ele>402.00000</ele>
        <time>2019-08-19T10:24:26Z</time>
      </trkpt>
      <trkpt lat="43.59304583" lon="3.008617255">
        <ele>404.00000</ele>
        <time>2019-08-19T10:24:40Z</time>
      </trkpt>
      <trkpt lat="43.59310124" lon="3.008637959">
        <ele>406.00000</ele>
        <time>2019-08-19T10:24:47Z</time>
      </trkpt>
      <trkpt lat="43.59323526" lon="3.008544584">
        <ele>414.00000</ele>
        <time>2019-08-19T10:25:24Z</time>
      </trkpt>
      <trkpt lat="43.59328757" lon="3.008533604">
        <ele>418.00000</ele>
        <time>2019-08-19T10:25:38Z</time>
      </trkpt>
      <trkpt lat="43.59329611" lon="3.008532682">
        <ele>419.00000</ele>
        <time>2019-08-19T10:25:40Z</time>
      </trkpt>
      <trkpt lat="43.59345990" lon="3.008534274">
        <ele>427.00000</ele>
        <time>2019-08-19T10:26:16Z</time>
      </trkpt>
      <trkpt lat="43.59352561" lon="3.008561097">
        <ele>427.00000</ele>
        <time>2019-08-19T10:26:24Z</time>
      </trkpt>
      <trkpt lat="43.59357867" lon="3.008497897">
        <ele>428.00000</ele>
        <time>2019-08-19T10:26:35Z</time>
      </trkpt>
      <trkpt lat="43.59372803" lon="3.008468141">
        <ele>433.00000</ele>
        <time>2019-08-19T10:27:07Z</time>
      </trkpt>
      <trkpt lat="43.59389743" lon="3.008523210">
        <ele>437.00000</ele>
        <time>2019-08-19T10:27:35Z</time>
      </trkpt>
      <trkpt lat="43.59407010" lon="3.008577860">
        <ele>441.00000</ele>
        <time>2019-08-19T10:28:07Z</time>
      </trkpt>
      <trkpt lat="43.59425651" lon="3.008576771">
        <ele>445.00000</ele>
        <time>2019-08-19T10:28:34Z</time>
      </trkpt>
      <trkpt lat="43.59442038" lon="3.008518349">
        <ele>451.00000</ele>
        <time>2019-08-19T10:29:10Z</time>
      </trkpt>
      <trkpt lat="43.59458173" lon="3.008497897">
        <ele>461.00000</ele>
        <time>2019-08-19T10:29:50Z</time>
      </trkpt>
      <trkpt lat="43.59469547" lon="3.008578699">
        <ele>466.00000</ele>
        <time>2019-08-19T10:30:19Z</time>
      </trkpt>
      <trkpt lat="43.59469187" lon="3.008565288">
        <ele>477.00000</ele>
        <time>2019-08-19T10:34:03Z</time>
      </trkpt>
      <trkpt lat="43.59485247" lon="3.008632427">
        <ele>480.00000</ele>
        <time>2019-08-19T10:34:43Z</time>
      </trkpt>
      <trkpt lat="43.59502857" lon="3.008698811">
        <ele>482.00000</ele>
        <time>2019-08-19T10:35:04Z</time>
      </trkpt>
      <trkpt lat="43.59520736" lon="3.008756563">
        <ele>485.00000</ele>
        <time>2019-08-19T10:35:26Z</time>
      </trkpt>
      <trkpt lat="43.59534767" lon="3.008777769">
        <ele>488.00000</ele>
        <time>2019-08-19T10:35:45Z</time>
      </trkpt>
      <trkpt lat="43.59548203" lon="3.008757904">
        <ele>490.00000</ele>
        <time>2019-08-19T10:36:15Z</time>
      </trkpt>
      <trkpt lat="43.59549838" lon="3.008769387">
        <ele>490.00000</ele>
        <time>2019-08-19T10:36:17Z</time>
      </trkpt>
      <trkpt lat="43.59561262" lon="3.008805010">
        <ele>492.00000</ele>
        <time>2019-08-19T10:36:32Z</time>
      </trkpt>
      <trkpt lat="43.59575193" lon="3.008715827">
        <ele>502.00000</ele>
        <time>2019-08-19T10:36:58Z</time>
      </trkpt>
      <trkpt lat="43.59581312" lon="3.008678108">
        <ele>507.00000</ele>
        <time>2019-08-19T10:37:19Z</time>
      </trkpt>
      <trkpt lat="43.59589308" lon="3.008610466">
        <ele>511.00000</ele>
        <time>2019-08-19T10:37:33Z</time>
      </trkpt>
      <trkpt lat="43.59596449" lon="3.008542573">
        <ele>516.00000</ele>
        <time>2019-08-19T10:37:47Z</time>
      </trkpt>
      <trkpt lat="43.59613062" lon="3.008508542">
        <ele>525.00000</ele>
        <time>2019-08-19T10:38:16Z</time>
      </trkpt>
      <trkpt lat="43.59615661" lon="3.008484905">
        <ele>525.00000</ele>
        <time>2019-08-19T10:38:19Z</time>
      </trkpt>
      <trkpt lat="43.59619617" lon="3.008449869">
        <ele>526.00000</ele>
        <time>2019-08-19T10:38:23Z</time>
      </trkpt>
      <trkpt lat="43.59623397" lon="3.008445845">
        <ele>528.00000</ele>
        <time>2019-08-19T10:38:26Z</time>
      </trkpt>
      <trkpt lat="43.59626716" lon="3.008460681">
        <ele>529.00000</ele>
        <time>2019-08-19T10:38:31Z</time>
      </trkpt>
      <trkpt lat="43.59627177" lon="3.008460514">
        <ele>530.00000</ele>
        <time>2019-08-19T10:38:32Z</time>
      </trkpt>
      <trkpt lat="43.59643405" lon="3.008400667">
        <ele>536.00000</ele>
        <time>2019-08-19T10:39:01Z</time>
      </trkpt>
      <trkpt lat="43.59644277" lon="3.008391447">
        <ele>536.00000</ele>
        <time>2019-08-19T10:39:02Z</time>
      </trkpt>
      <trkpt lat="43.59647302" lon="3.008375773">
        <ele>538.00000</ele>
        <time>2019-08-19T10:39:05Z</time>
      </trkpt>
      <trkpt lat="43.59652751" lon="3.008343586">
        <ele>540.00000</ele>
        <time>2019-08-19T10:39:12Z</time>
      </trkpt>
      <trkpt lat="43.59657319" lon="3.008259013">
        <ele>543.00000</ele>
        <time>2019-08-19T10:39:23Z</time>
      </trkpt>
      <trkpt lat="43.59659926" lon="3.008212996">
        <ele>544.00000</ele>
        <time>2019-08-19T10:39:28Z</time>
      </trkpt>
      <trkpt lat="43.59667494" lon="3.008196400">
        <ele>545.00000</ele>
        <time>2019-08-19T10:39:37Z</time>
      </trkpt>
      <trkpt lat="43.59671040" lon="3.008206626">
        <ele>546.00000</ele>
        <time>2019-08-19T10:39:41Z</time>
      </trkpt>
      <trkpt lat="43.59684015" lon="3.008172679">
        <ele>549.00000</ele>
        <time>2019-08-19T10:39:56Z</time>
      </trkpt>
      <trkpt lat="43.59696772" lon="3.008161112">
        <ele>552.00000</ele>
        <time>2019-08-19T10:40:10Z</time>
      </trkpt>
      <trkpt lat="43.59700217" lon="3.008162621">
        <ele>552.00000</ele>
        <time>2019-08-19T10:40:13Z</time>
      </trkpt>
      <trkpt lat="43.59718431" lon="3.008138984">
        <ele>553.00000</ele>
        <time>2019-08-19T10:40:29Z</time>
      </trkpt>
      <trkpt lat="43.59721524" lon="3.008130434">
        <ele>554.00000</ele>
        <time>2019-08-19T10:40:34Z</time>
      </trkpt>
      <trkpt lat="43.59729353" lon="3.008080562">
        <ele>556.00000</ele>
        <time>2019-08-19T10:40:44Z</time>
      </trkpt>
      <trkpt lat="43.59729956" lon="3.008081149">
        <ele>556.00000</ele>
        <time>2019-08-19T10:40:45Z</time>
      </trkpt>
      <trkpt lat="43.59733058" lon="3.008014513">
        <ele>557.00000</ele>
        <time>2019-08-19T10:40:52Z</time>
      </trkpt>
      <trkpt lat="43.59735296" lon="3.007949385">
        <ele>558.00000</ele>
        <time>2019-08-19T10:40:59Z</time>
      </trkpt>
      <trkpt lat="43.59735094" lon="3.007933376">
        <ele>558.00000</ele>
        <time>2019-08-19T10:41:00Z</time>
      </trkpt>
      <trkpt lat="43.59740526" lon="3.007851820">
        <ele>560.00000</ele>
        <time>2019-08-19T10:41:11Z</time>
      </trkpt>
      <trkpt lat="43.59747801" lon="3.007831368">
        <ele>561.00000</ele>
        <time>2019-08-19T10:41:22Z</time>
      </trkpt>
      <trkpt lat="43.59752034" lon="3.007863471">
        <ele>562.00000</ele>
        <time>2019-08-19T10:41:27Z</time>
      </trkpt>
      <trkpt lat="43.59759779" lon="3.007865063">
        <ele>562.00000</ele>
        <time>2019-08-19T10:41:36Z</time>
      </trkpt>
      <trkpt lat="43.59761950" lon="3.007846791">
        <ele>563.00000</ele>
        <time>2019-08-19T10:41:40Z</time>
      </trkpt>
      <trkpt lat="43.59768530" lon="3.007773701">
        <ele>563.00000</ele>
        <time>2019-08-19T10:41:52Z</time>
      </trkpt>
      <trkpt lat="43.59769770" lon="3.007731540">
        <ele>563.00000</ele>
        <time>2019-08-19T10:41:55Z</time>
      </trkpt>
      <trkpt lat="43.59774380" lon="3.007681751">
        <ele>563.00000</ele>
        <time>2019-08-19T10:42:07Z</time>
      </trkpt>
      <trkpt lat="43.59776065" lon="3.007610421">
        <ele>564.00000</ele>
        <time>2019-08-19T10:42:15Z</time>
      </trkpt>
      <trkpt lat="43.59780088" lon="3.007556861">
        <ele>567.00000</ele>
        <time>2019-08-19T10:42:29Z</time>
      </trkpt>
      <trkpt lat="43.59788102" lon="3.007560214">
        <ele>569.00000</ele>
        <time>2019-08-19T10:42:40Z</time>
      </trkpt>
      <trkpt lat="43.59794748" lon="3.007530290">
        <ele>570.00000</ele>
        <time>2019-08-19T10:42:52Z</time>
      </trkpt>
      <trkpt lat="43.59802611" lon="3.007431970">
        <ele>572.00000</ele>
        <time>2019-08-19T10:43:05Z</time>
      </trkpt>
      <trkpt lat="43.59800079" lon="3.007266093">
        <ele>578.00000</ele>
        <time>2019-08-19T10:43:39Z</time>
      </trkpt>
      <trkpt lat="43.59796383" lon="3.007196355">
        <ele>579.00000</ele>
        <time>2019-08-19T10:43:45Z</time>
      </trkpt>
      <trkpt lat="43.59795612" lon="3.007176574">
        <ele>579.00000</ele>
        <time>2019-08-19T10:43:47Z</time>
      </trkpt>
      <trkpt lat="43.59792343" lon="3.007020922">
        <ele>585.00000</ele>
        <time>2019-08-19T10:44:27Z</time>
      </trkpt>
      <trkpt lat="43.59777197" lon="3.006924027">
        <ele>590.00000</ele>
        <time>2019-08-19T10:44:56Z</time>
      </trkpt>
      <trkpt lat="43.59787062" lon="3.006749516">
        <ele>593.00000</ele>
        <time>2019-08-19T10:45:32Z</time>
      </trkpt>
      <trkpt lat="43.59800180" lon="3.006596295">
        <ele>598.00000</ele>
        <time>2019-08-19T10:46:08Z</time>
      </trkpt>
      <trkpt lat="43.59810959" lon="3.006417928">
        <ele>600.00000</ele>
        <time>2019-08-19T10:46:27Z</time>
      </trkpt>
      <trkpt lat="43.59817589" lon="3.006416251">
        <ele>601.00000</ele>
        <time>2019-08-19T10:46:36Z</time>
      </trkpt>
      <trkpt lat="43.59833221" lon="3.006364535">
        <ele>604.00000</ele>
        <time>2019-08-19T10:47:14Z</time>
      </trkpt>
      <trkpt lat="43.59832442" lon="3.006411641">
        <ele>605.00000</ele>
        <time>2019-08-19T10:47:35Z</time>
      </trkpt>
      <trkpt lat="43.59839919" lon="3.006386915">
        <ele>605.00000</ele>
        <time>2019-08-19T10:47:53Z</time>
      </trkpt>
      <trkpt lat="43.59842617" lon="3.006350286">
        <ele>605.00000</ele>
        <time>2019-08-19T10:47:57Z</time>
      </trkpt>
      <trkpt lat="43.59832182" lon="3.006351543">
        <ele>615.00000</ele>
        <time>2019-08-19T10:52:22Z</time>
      </trkpt>
      <trkpt lat="43.59815686" lon="3.005234906">
        <ele>610.00000</ele>
        <time>2019-08-19T10:53:06Z</time>
      </trkpt>
      <trkpt lat="43.59831260" lon="3.006535274">
        <ele>653.00000</ele>
        <time>2019-08-19T10:59:43Z</time>
      </trkpt>
      <trkpt lat="43.59825803" lon="3.006592690">
        <ele>632.00000</ele>
        <time>2019-08-19T10:59:58Z</time>
      </trkpt>
      <trkpt lat="43.59833347" lon="3.006392782">
        <ele>626.00000</ele>
        <time>2019-08-19T11:00:24Z</time>
      </trkpt>
      <trkpt lat="43.59822979" lon="3.006409881">
        <ele>625.00000</ele>
        <time>2019-08-19T11:00:45Z</time>
      </trkpt>
      <trkpt lat="43.59825778" lon="3.006508285">
        <ele>625.00000</ele>
        <time>2019-08-19T11:00:54Z</time>
      </trkpt>
      <trkpt lat="43.59824437" lon="3.006489090">
        <ele>625.00000</ele>
        <time>2019-08-19T11:01:02Z</time>
      </trkpt>
      <trkpt lat="43.59838292" lon="3.006546674">
        <ele>624.00000</ele>
        <time>2019-08-19T11:01:39Z</time>
      </trkpt>
      <trkpt lat="43.59842106" lon="3.006525384">
        <ele>624.00000</ele>
        <time>2019-08-19T11:01:42Z</time>
      </trkpt>
      <trkpt lat="43.59847060" lon="3.006528653">
        <ele>624.00000</ele>
        <time>2019-08-19T11:01:47Z</time>
      </trkpt>
      <trkpt lat="43.59860379" lon="3.006478110">
        <ele>625.00000</ele>
        <time>2019-08-19T11:02:00Z</time>
      </trkpt>
      <trkpt lat="43.59873857" lon="3.006440894">
        <ele>627.00000</ele>
        <time>2019-08-19T11:02:16Z</time>
      </trkpt>
      <trkpt lat="43.59887469" lon="3.006516247">
        <ele>631.00000</ele>
        <time>2019-08-19T11:02:43Z</time>
      </trkpt>
      <trkpt lat="43.59888123" lon="3.006524294">
        <ele>632.00000</ele>
        <time>2019-08-19T11:02:44Z</time>
      </trkpt>
      <trkpt lat="43.59893814" lon="3.006569389">
        <ele>633.00000</ele>
        <time>2019-08-19T11:02:50Z</time>
      </trkpt>
      <trkpt lat="43.59909706" lon="3.006686903">
        <ele>635.00000</ele>
        <time>2019-08-19T11:03:04Z</time>
      </trkpt>
      <trkpt lat="43.59913771" lon="3.006698219">
        <ele>635.00000</ele>
        <time>2019-08-19T11:03:08Z</time>
      </trkpt>
      <trkpt lat="43.59913738" lon="3.006695453">
        <ele>635.00000</ele>
        <time>2019-08-19T11:03:09Z</time>
      </trkpt>
      <trkpt lat="43.59918029" lon="3.006780697">
        <ele>635.00000</ele>
        <time>2019-08-19T11:03:18Z</time>
      </trkpt>
      <trkpt lat="43.59925674" lon="3.006835514">
        <ele>636.00000</ele>
        <time>2019-08-19T11:03:27Z</time>
      </trkpt>
      <trkpt lat="43.59939990" lon="3.006992843">
        <ele>638.00000</ele>
        <time>2019-08-19T11:03:42Z</time>
      </trkpt>
      <trkpt lat="43.59956050" lon="3.007070710">
        <ele>641.00000</ele>
        <time>2019-08-19T11:04:14Z</time>
      </trkpt>
      <trkpt lat="43.59963451" lon="3.007113961">
        <ele>641.00000</ele>
        <time>2019-08-19T11:04:24Z</time>
      </trkpt>
      <trkpt lat="43.59979377" lon="3.007119074">
        <ele>642.00000</ele>
        <time>2019-08-19T11:04:46Z</time>
      </trkpt>
      <trkpt lat="43.59980768" lon="3.007129384">
        <ele>642.00000</ele>
        <time>2019-08-19T11:04:47Z</time>
      </trkpt>
      <trkpt lat="43.59988940" lon="3.007183196">
        <ele>643.00000</ele>
        <time>2019-08-19T11:04:55Z</time>
      </trkpt>
      <trkpt lat="43.60006584" lon="3.007261985">
        <ele>646.00000</ele>
        <time>2019-08-19T11:05:14Z</time>
      </trkpt>
      <trkpt lat="43.60009987" lon="3.007279420">
        <ele>647.00000</ele>
        <time>2019-08-19T11:05:18Z</time>
      </trkpt>
      <trkpt lat="43.60019585" lon="3.007324514">
        <ele>647.00000</ele>
        <time>2019-08-19T11:05:27Z</time>
      </trkpt>
      <trkpt lat="43.60020356" lon="3.007331471">
        <ele>647.00000</ele>
        <time>2019-08-19T11:05:28Z</time>
      </trkpt>
      <trkpt lat="43.60025008" lon="3.007353516">
        <ele>648.00000</ele>
        <time>2019-08-19T11:05:36Z</time>
      </trkpt>
      <trkpt lat="43.60041646" lon="3.007425433">
        <ele>651.00000</ele>
        <time>2019-08-19T11:05:57Z</time>
      </trkpt>
      <trkpt lat="43.60048905" lon="3.007449237">
        <ele>652.00000</ele>
        <time>2019-08-19T11:06:04Z</time>
      </trkpt>
      <trkpt lat="43.60064134" lon="3.007466755">
        <ele>657.00000</ele>
        <time>2019-08-19T11:06:21Z</time>
      </trkpt>
      <trkpt lat="43.60067462" lon="3.007445717">
        <ele>658.00000</ele>
        <time>2019-08-19T11:06:25Z</time>
      </trkpt>
      <trkpt lat="43.60075651" lon="3.007450075">
        <ele>660.00000</ele>
        <time>2019-08-19T11:06:35Z</time>
      </trkpt>
      <trkpt lat="43.60081208" lon="3.007424678">
        <ele>660.00000</ele>
        <time>2019-08-19T11:06:41Z</time>
      </trkpt>
      <trkpt lat="43.60098450" lon="3.007400706">
        <ele>660.00000</ele>
        <time>2019-08-19T11:07:01Z</time>
      </trkpt>
      <trkpt lat="43.60104200" lon="3.007355695">
        <ele>660.00000</ele>
        <time>2019-08-19T11:07:07Z</time>
      </trkpt>
      <trkpt lat="43.60108005" lon="3.007371788">
        <ele>660.00000</ele>
        <time>2019-08-19T11:07:11Z</time>
      </trkpt>
      <trkpt lat="43.60113722" lon="3.007391653">
        <ele>660.00000</ele>
        <time>2019-08-19T11:07:18Z</time>
      </trkpt>
      <trkpt lat="43.60120746" lon="3.007407998">
        <ele>660.00000</ele>
        <time>2019-08-19T11:07:25Z</time>
      </trkpt>
      <trkpt lat="43.60130209" lon="3.007386373">
        <ele>661.00000</ele>
        <time>2019-08-19T11:07:39Z</time>
      </trkpt>
      <trkpt lat="43.60135246" lon="3.007419146">
        <ele>661.00000</ele>
        <time>2019-08-19T11:07:44Z</time>
      </trkpt>
      <trkpt lat="43.60149320" lon="3.007559711">
        <ele>661.00000</ele>
        <time>2019-08-19T11:07:58Z</time>
      </trkpt>
      <trkpt lat="43.60151616" lon="3.007571864">
        <ele>662.00000</ele>
        <time>2019-08-19T11:08:00Z</time>
      </trkpt>
      <trkpt lat="43.60152597" lon="3.007575469">
        <ele>662.00000</ele>
        <time>2019-08-19T11:08:02Z</time>
      </trkpt>
      <trkpt lat="43.60164022" lon="3.007641350">
        <ele>662.00000</ele>
        <time>2019-08-19T11:08:15Z</time>
      </trkpt>
      <trkpt lat="43.60178413" lon="3.007779568">
        <ele>663.00000</ele>
        <time>2019-08-19T11:08:35Z</time>
      </trkpt>
      <trkpt lat="43.60180919" lon="3.007823238">
        <ele>663.00000</ele>
        <time>2019-08-19T11:08:39Z</time>
      </trkpt>
      <trkpt lat="43.60190081" lon="3.007996659">
        <ele>668.00000</ele>
        <time>2019-08-19T11:09:22Z</time>
      </trkpt>
      <trkpt lat="43.60203106" lon="3.008171422">
        <ele>669.00000</ele>
        <time>2019-08-19T11:09:39Z</time>
      </trkpt>
      <trkpt lat="43.60203903" lon="3.008182989">
        <ele>669.00000</ele>
        <time>2019-08-19T11:09:40Z</time>
      </trkpt>
      <trkpt lat="43.60207901" lon="3.008233616">
        <ele>669.00000</ele>
        <time>2019-08-19T11:09:47Z</time>
      </trkpt>
      <trkpt lat="43.60222251" lon="3.008280219">
        <ele>669.00000</ele>
        <time>2019-08-19T11:09:58Z</time>
      </trkpt>
      <trkpt lat="43.60238210" lon="3.008302263">
        <ele>667.00000</ele>
        <time>2019-08-19T11:10:17Z</time>
      </trkpt>
      <trkpt lat="43.60249207" lon="3.008315926">
        <ele>666.00000</ele>
        <time>2019-08-19T11:10:31Z</time>
      </trkpt>
      <trkpt lat="43.60252451" lon="3.008304862">
        <ele>666.00000</ele>
        <time>2019-08-19T11:10:34Z</time>
      </trkpt>
      <trkpt lat="43.60256315" lon="3.008294301">
        <ele>667.00000</ele>
        <time>2019-08-19T11:10:38Z</time>
      </trkpt>
      <trkpt lat="43.60257212" lon="3.008296899">
        <ele>667.00000</ele>
        <time>2019-08-19T11:10:39Z</time>
      </trkpt>
      <trkpt lat="43.60259986" lon="3.008297318">
        <ele>667.00000</ele>
        <time>2019-08-19T11:10:41Z</time>
      </trkpt>
      <trkpt lat="43.60271193" lon="3.008288517">
        <ele>669.00000</ele>
        <time>2019-08-19T11:10:51Z</time>
      </trkpt>
      <trkpt lat="43.60287596" lon="3.008223641">
        <ele>670.00000</ele>
        <time>2019-08-19T11:11:17Z</time>
      </trkpt>
      <trkpt lat="43.60302876" lon="3.008162202">
        <ele>672.00000</ele>
        <time>2019-08-19T11:11:32Z</time>
      </trkpt>
      <trkpt lat="43.60319045" lon="3.008078048">
        <ele>677.00000</ele>
        <time>2019-08-19T11:11:54Z</time>
      </trkpt>
      <trkpt lat="43.60333353" lon="3.007939327">
        <ele>682.00000</ele>
        <time>2019-08-19T11:12:25Z</time>
      </trkpt>
      <trkpt lat="43.60347451" lon="3.007819633">
        <ele>688.00000</ele>
        <time>2019-08-19T11:12:58Z</time>
      </trkpt>
      <trkpt lat="43.60363729" lon="3.007848970">
        <ele>690.00000</ele>
        <time>2019-08-19T11:13:30Z</time>
      </trkpt>
      <trkpt lat="43.60381213" lon="3.007781412">
        <ele>691.00000</ele>
        <time>2019-08-19T11:13:46Z</time>
      </trkpt>
      <trkpt lat="43.60398472" lon="3.007822819">
        <ele>693.00000</ele>
        <time>2019-08-19T11:14:04Z</time>
      </trkpt>
      <trkpt lat="43.60402856" lon="3.007866153">
        <ele>694.00000</ele>
        <time>2019-08-19T11:14:10Z</time>
      </trkpt>
      <trkpt lat="43.60415931" lon="3.008036725">
        <ele>696.00000</ele>
        <time>2019-08-19T11:14:29Z</time>
      </trkpt>
      <trkpt lat="43.60432838" lon="3.008121885">
        <ele>698.00000</ele>
        <time>2019-08-19T11:14:53Z</time>
      </trkpt>
      <trkpt lat="43.60450373" lon="3.008205872">
        <ele>701.00000</ele>
        <time>2019-08-19T11:15:18Z</time>
      </trkpt>
      <trkpt lat="43.60458101" lon="3.008258510">
        <ele>702.00000</ele>
        <time>2019-08-19T11:15:25Z</time>
      </trkpt>
      <trkpt lat="43.60461219" lon="3.008250463">
        <ele>702.00000</ele>
        <time>2019-08-19T11:15:30Z</time>
      </trkpt>
      <trkpt lat="43.60478075" lon="3.008302263">
        <ele>707.00000</ele>
        <time>2019-08-19T11:15:59Z</time>
      </trkpt>
      <trkpt lat="43.60492944" lon="3.008427573">
        <ele>710.00000</ele>
        <time>2019-08-19T11:16:20Z</time>
      </trkpt>
      <trkpt lat="43.60506188" lon="3.008573167">
        <ele>714.00000</ele>
        <time>2019-08-19T11:16:42Z</time>
      </trkpt>
      <trkpt lat="43.60522490" lon="3.008650448">
        <ele>718.00000</ele>
        <time>2019-08-19T11:17:11Z</time>
      </trkpt>
      <trkpt lat="43.60529405" lon="3.008864102">
        <ele>720.00000</ele>
        <time>2019-08-19T11:17:41Z</time>
      </trkpt>
      <trkpt lat="43.60538768" lon="3.009065017">
        <ele>722.00000</ele>
        <time>2019-08-19T11:18:07Z</time>
      </trkpt>
      <trkpt lat="43.60555155" lon="3.009066861">
        <ele>724.00000</ele>
        <time>2019-08-19T11:18:38Z</time>
      </trkpt>
      <trkpt lat="43.60566076" lon="3.008969211">
        <ele>723.00000</ele>
        <time>2019-08-19T11:19:23Z</time>
      </trkpt>
      <trkpt lat="43.60569010" lon="3.008845243">
        <ele>721.00000</ele>
        <time>2019-08-19T11:20:17Z</time>
      </trkpt>
      <trkpt lat="43.60582153" lon="3.008765196">
        <ele>722.00000</ele>
        <time>2019-08-19T11:21:01Z</time>
      </trkpt>
      <trkpt lat="43.60594483" lon="3.008592026">
        <ele>721.00000</ele>
        <time>2019-08-19T11:21:31Z</time>
      </trkpt>
      <trkpt lat="43.60606469" lon="3.008434111">
        <ele>721.00000</ele>
        <time>2019-08-19T11:22:05Z</time>
      </trkpt>
      <trkpt lat="43.60619117" lon="3.008266557">
        <ele>722.00000</ele>
        <time>2019-08-19T11:22:32Z</time>
      </trkpt>
      <trkpt lat="43.60635118" lon="3.008157173">
        <ele>722.00000</ele>
        <time>2019-08-19T11:22:54Z</time>
      </trkpt>
      <trkpt lat="43.60648621" lon="3.007995989">
        <ele>723.00000</ele>
        <time>2019-08-19T11:23:17Z</time>
      </trkpt>
      <trkpt lat="43.60663709" lon="3.007894819">
        <ele>724.00000</ele>
        <time>2019-08-19T11:23:42Z</time>
      </trkpt>
      <trkpt lat="43.60680104" lon="3.007824327">
        <ele>726.00000</ele>
        <time>2019-08-19T11:24:06Z</time>
      </trkpt>
      <trkpt lat="43.60695711" lon="3.007737575">
        <ele>727.00000</ele>
        <time>2019-08-19T11:24:26Z</time>
      </trkpt>
      <trkpt lat="43.60699240" lon="3.007705304">
        <ele>728.00000</ele>
        <time>2019-08-19T11:24:32Z</time>
      </trkpt>
      <trkpt lat="43.60715785" lon="3.007616540">
        <ele>730.00000</ele>
        <time>2019-08-19T11:24:59Z</time>
      </trkpt>
      <trkpt lat="43.60721913" lon="3.007602542">
        <ele>731.00000</ele>
        <time>2019-08-19T11:25:07Z</time>
      </trkpt>
      <trkpt lat="43.60739439" lon="3.007550323">
        <ele>734.00000</ele>
        <time>2019-08-19T11:25:42Z</time>
      </trkpt>
      <trkpt lat="43.60755516" lon="3.007667334">
        <ele>736.00000</ele>
        <time>2019-08-19T11:26:03Z</time>
      </trkpt>
      <trkpt lat="43.60773218" lon="3.007689127">
        <ele>739.00000</ele>
        <time>2019-08-19T11:26:29Z</time>
      </trkpt>
      <trkpt lat="43.60786990" lon="3.007676806">
        <ele>741.00000</ele>
        <time>2019-08-19T11:26:49Z</time>
      </trkpt>
      <trkpt lat="43.60804022" lon="3.007728857">
        <ele>744.00000</ele>
        <time>2019-08-19T11:27:11Z</time>
      </trkpt>
      <trkpt lat="43.60821976" lon="3.007762804">
        <ele>748.00000</ele>
        <time>2019-08-19T11:27:35Z</time>
      </trkpt>
      <trkpt lat="43.60832193" lon="3.007775880">
        <ele>749.00000</ele>
        <time>2019-08-19T11:27:46Z</time>
      </trkpt>
      <trkpt lat="43.60847599" lon="3.007868751">
        <ele>753.00000</ele>
        <time>2019-08-19T11:28:08Z</time>
      </trkpt>
      <trkpt lat="43.60865503" lon="3.007906638">
        <ele>756.00000</ele>
        <time>2019-08-19T11:28:27Z</time>
      </trkpt>
      <trkpt lat="43.60883935" lon="3.007936477">
        <ele>759.00000</ele>
        <time>2019-08-19T11:28:47Z</time>
      </trkpt>
      <trkpt lat="43.60901763" lon="3.007949385">
        <ele>763.00000</ele>
        <time>2019-08-19T11:29:08Z</time>
      </trkpt>
      <trkpt lat="43.60919432" lon="3.007929772">
        <ele>765.00000</ele>
        <time>2019-08-19T11:29:37Z</time>
      </trkpt>
      <trkpt lat="43.60929708" lon="3.007925245">
        <ele>766.00000</ele>
        <time>2019-08-19T11:29:51Z</time>
      </trkpt>
      <trkpt lat="43.60947771" lon="3.007907895">
        <ele>768.00000</ele>
        <time>2019-08-19T11:30:16Z</time>
      </trkpt>
      <trkpt lat="43.60956824" lon="3.007917953">
        <ele>769.00000</ele>
        <time>2019-08-19T11:30:27Z</time>
      </trkpt>
      <trkpt lat="43.60974434" lon="3.007937986">
        <ele>770.00000</ele>
        <time>2019-08-19T11:30:50Z</time>
      </trkpt>
      <trkpt lat="43.60991911" lon="3.007992887">
        <ele>773.00000</ele>
        <time>2019-08-19T11:31:10Z</time>
      </trkpt>
      <trkpt lat="43.61004609" lon="3.008146444">
        <ele>778.00000</ele>
        <time>2019-08-19T11:31:44Z</time>
      </trkpt>
      <trkpt lat="43.61017735" lon="3.008182737">
        <ele>780.00000</ele>
        <time>2019-08-19T11:32:25Z</time>
      </trkpt>
      <trkpt lat="43.61018925" lon="3.008121717">
        <ele>783.00000</ele>
        <time>2019-08-19T11:33:21Z</time>
      </trkpt>
      <trkpt lat="43.61022161" lon="3.008061200">
        <ele>784.00000</ele>
        <time>2019-08-19T11:33:40Z</time>
      </trkpt>
      <trkpt lat="43.61037047" lon="3.008205033">
        <ele>785.00000</ele>
        <time>2019-08-19T11:34:05Z</time>
      </trkpt>
      <trkpt lat="43.61044197" lon="3.008293379">
        <ele>785.00000</ele>
        <time>2019-08-19T11:34:19Z</time>
      </trkpt>
      <trkpt lat="43.61037902" lon="3.008201345">
        <ele>799.00000</ele>
        <time>2019-08-19T11:39:46Z</time>
      </trkpt>
      <trkpt lat="43.61039687" lon="3.008186761">
        <ele>793.00000</ele>
        <time>2019-08-19T11:39:47Z</time>
      </trkpt>
      <trkpt lat="43.61035756" lon="3.008164716">
        <ele>789.00000</ele>
        <time>2019-08-19T11:39:52Z</time>
      </trkpt>
      <trkpt lat="43.61035974" lon="3.008152730">
        <ele>790.00000</ele>
        <time>2019-08-19T11:39:54Z</time>
      </trkpt>
      <trkpt lat="43.61027768" lon="3.008109563">
        <ele>798.00000</ele>
        <time>2019-08-19T11:40:13Z</time>
      </trkpt>
      <trkpt lat="43.61018263" lon="3.008166057">
        <ele>785.00000</ele>
        <time>2019-08-19T11:40:48Z</time>
      </trkpt>
      <trkpt lat="43.61004534" lon="3.008227497">
        <ele>785.00000</ele>
        <time>2019-08-19T11:41:41Z</time>
      </trkpt>
      <trkpt lat="43.60995087" lon="3.008282063">
        <ele>785.00000</ele>
        <time>2019-08-19T11:42:15Z</time>
      </trkpt>
      <trkpt lat="43.60996328" lon="3.008474847">
        <ele>784.00000</ele>
        <time>2019-08-19T11:42:58Z</time>
      </trkpt>
      <trkpt lat="43.60994484" lon="3.008638713">
        <ele>784.00000</ele>
        <time>2019-08-19T11:43:47Z</time>
      </trkpt>
      <trkpt lat="43.60998583" lon="3.008703589">
        <ele>784.00000</ele>
        <time>2019-08-19T11:44:02Z</time>
      </trkpt>
      <trkpt lat="43.60995062" lon="3.008682802">
        <ele>783.00000</ele>
        <time>2019-08-19T11:44:06Z</time>
      </trkpt>
      <trkpt lat="43.60999278" lon="3.008098080">
        <ele>761.00000</ele>
        <time>2019-08-19T12:20:38Z</time>
      </trkpt>
      <trkpt lat="43.60999236" lon="3.008048878">
        <ele>751.00000</ele>
        <time>2019-08-19T12:20:39Z</time>
      </trkpt>
      <trkpt lat="43.61004601" lon="3.007919965">
        <ele>742.00000</ele>
        <time>2019-08-19T12:20:55Z</time>
      </trkpt>
      <trkpt lat="43.61001986" lon="3.008038150">
        <ele>743.00000</ele>
        <time>2019-08-19T12:21:02Z</time>
      </trkpt>
      <trkpt lat="43.61001851" lon="3.008041251">
        <ele>743.00000</ele>
        <time>2019-08-19T12:21:03Z</time>
      </trkpt>
      <trkpt lat="43.61004190" lon="3.008083747">
        <ele>755.00000</ele>
        <time>2019-08-19T12:21:58Z</time>
      </trkpt>
      <trkpt lat="43.61019512" lon="3.008066732">
        <ele>757.00000</ele>
        <time>2019-08-19T12:22:26Z</time>
      </trkpt>
      <trkpt lat="43.61026830" lon="3.007897837">
        <ele>759.00000</ele>
        <time>2019-08-19T12:22:46Z</time>
      </trkpt>
      <trkpt lat="43.61032655" lon="3.007971346">
        <ele>759.00000</ele>
        <time>2019-08-19T12:22:52Z</time>
      </trkpt>
      <trkpt lat="43.61046049" lon="3.008111156">
        <ele>760.00000</ele>
        <time>2019-08-19T12:23:03Z</time>
      </trkpt>
      <trkpt lat="43.61053249" lon="3.008188605">
        <ele>761.00000</ele>
        <time>2019-08-19T12:23:09Z</time>
      </trkpt>
      <trkpt lat="43.61056795" lon="3.008240321">
        <ele>762.00000</ele>
        <time>2019-08-19T12:23:13Z</time>
      </trkpt>
      <trkpt lat="43.61062193" lon="3.008284745">
        <ele>764.00000</ele>
        <time>2019-08-19T12:23:19Z</time>
      </trkpt>
      <trkpt lat="43.61077892" lon="3.008308047">
        <ele>767.00000</ele>
        <time>2019-08-19T12:23:31Z</time>
      </trkpt>
      <trkpt lat="43.61087062" lon="3.008279297">
        <ele>769.00000</ele>
        <time>2019-08-19T12:23:39Z</time>
      </trkpt>
      <trkpt lat="43.61093214" lon="3.008241495">
        <ele>772.00000</ele>
        <time>2019-08-19T12:23:47Z</time>
      </trkpt>
      <trkpt lat="43.61111017" lon="3.008235879">
        <ele>779.00000</ele>
        <time>2019-08-19T12:24:11Z</time>
      </trkpt>
      <trkpt lat="43.61122048" lon="3.008208721">
        <ele>781.00000</ele>
        <time>2019-08-19T12:24:21Z</time>
      </trkpt>
      <trkpt lat="43.61137739" lon="3.008103948">
        <ele>785.00000</ele>
        <time>2019-08-19T12:24:40Z</time>
      </trkpt>
      <trkpt lat="43.61144402" lon="3.008052986">
        <ele>786.00000</ele>
        <time>2019-08-19T12:24:48Z</time>
      </trkpt>
      <trkpt lat="43.61146607" lon="3.008060948">
        <ele>787.00000</ele>
        <time>2019-08-19T12:24:51Z</time>
      </trkpt>
      <trkpt lat="43.61150379" lon="3.008106630">
        <ele>785.00000</ele>
        <time>2019-08-19T12:25:17Z</time>
      </trkpt>
      <trkpt lat="43.61154763" lon="3.008148875">
        <ele>784.00000</ele>
        <time>2019-08-19T12:25:23Z</time>
      </trkpt>
      <trkpt lat="43.61165240" lon="3.008221378">
        <ele>779.00000</ele>
        <time>2019-08-19T12:26:06Z</time>
      </trkpt>
      <trkpt lat="43.61176413" lon="3.008308801">
        <ele>778.00000</ele>
        <time>2019-08-19T12:26:20Z</time>
      </trkpt>
      <trkpt lat="43.61186329" lon="3.008294301">
        <ele>778.00000</ele>
        <time>2019-08-19T12:26:34Z</time>
      </trkpt>
      <trkpt lat="43.61200863" lon="3.008156251">
        <ele>780.00000</ele>
        <time>2019-08-19T12:26:59Z</time>
      </trkpt>
      <trkpt lat="43.61215883" lon="3.008010322">
        <ele>781.00000</ele>
        <time>2019-08-19T12:27:17Z</time>
      </trkpt>
      <trkpt lat="43.61227819" lon="3.007817454">
        <ele>783.00000</ele>
        <time>2019-08-19T12:27:31Z</time>
      </trkpt>
      <trkpt lat="43.61241750" lon="3.007652498">
        <ele>785.00000</ele>
        <time>2019-08-19T12:27:51Z</time>
      </trkpt>
      <trkpt lat="43.61254490" lon="3.007470108">
        <ele>785.00000</ele>
        <time>2019-08-19T12:28:09Z</time>
      </trkpt>
      <trkpt lat="43.61270106" lon="3.007326610">
        <ele>786.00000</ele>
        <time>2019-08-19T12:28:25Z</time>
      </trkpt>
      <trkpt lat="43.61288077" lon="3.007324263">
        <ele>787.00000</ele>
        <time>2019-08-19T12:28:38Z</time>
      </trkpt>
      <trkpt lat="43.61296014" lon="3.007325269">
        <ele>789.00000</ele>
        <time>2019-08-19T12:28:46Z</time>
      </trkpt>
      <trkpt lat="43.61300247" lon="3.007309678">
        <ele>791.00000</ele>
        <time>2019-08-19T12:28:51Z</time>
      </trkpt>
      <trkpt lat="43.61311328" lon="3.007217980">
        <ele>794.00000</ele>
        <time>2019-08-19T12:29:03Z</time>
      </trkpt>
      <trkpt lat="43.61315184" lon="3.007194092">
        <ele>795.00000</ele>
        <time>2019-08-19T12:29:07Z</time>
      </trkpt>
      <trkpt lat="43.61318302" lon="3.007179507">
        <ele>795.00000</ele>
        <time>2019-08-19T12:29:11Z</time>
      </trkpt>
      <trkpt lat="43.61320246" lon="3.007168779">
        <ele>795.00000</ele>
        <time>2019-08-19T12:29:13Z</time>
      </trkpt>
      <trkpt lat="43.61328804" lon="3.007126701">
        <ele>797.00000</ele>
        <time>2019-08-19T12:29:21Z</time>
      </trkpt>
      <trkpt lat="43.61342702" lon="3.007137430">
        <ele>801.00000</ele>
        <time>2019-08-19T12:29:35Z</time>
      </trkpt>
      <trkpt lat="43.61349826" lon="3.007162827">
        <ele>803.00000</ele>
        <time>2019-08-19T12:29:41Z</time>
      </trkpt>
      <trkpt lat="43.61368292" lon="3.007161570">
        <ele>803.00000</ele>
        <time>2019-08-19T12:29:59Z</time>
      </trkpt>
      <trkpt lat="43.61382876" lon="3.007029471">
        <ele>802.00000</ele>
        <time>2019-08-19T12:30:24Z</time>
      </trkpt>
      <trkpt lat="43.61395575" lon="3.006846662">
        <ele>803.00000</ele>
        <time>2019-08-19T12:30:42Z</time>
      </trkpt>
      <trkpt lat="43.61405918" lon="3.006632840">
        <ele>802.00000</ele>
        <time>2019-08-19T12:30:57Z</time>
      </trkpt>
      <trkpt lat="43.61421282" lon="3.006486911">
        <ele>801.00000</ele>
        <time>2019-08-19T12:31:12Z</time>
      </trkpt>
      <trkpt lat="43.61437291" lon="3.006353136">
        <ele>799.00000</ele>
        <time>2019-08-19T12:31:27Z</time>
      </trkpt>
      <trkpt lat="43.61439890" lon="3.006349531">
        <ele>799.00000</ele>
        <time>2019-08-19T12:31:29Z</time>
      </trkpt>
      <trkpt lat="43.61456897" lon="3.006354812">
        <ele>801.00000</ele>
        <time>2019-08-19T12:31:42Z</time>
      </trkpt>
      <trkpt lat="43.61466695" lon="3.006522785">
        <ele>800.00000</ele>
        <time>2019-08-19T12:31:54Z</time>
      </trkpt>
      <trkpt lat="43.61464784" lon="3.006770974">
        <ele>802.00000</ele>
        <time>2019-08-19T12:32:09Z</time>
      </trkpt>
      <trkpt lat="43.61461943" lon="3.006971720">
        <ele>806.00000</ele>
        <time>2019-08-19T12:32:21Z</time>
      </trkpt>
      <trkpt lat="43.61460375" lon="3.007057383">
        <ele>807.00000</ele>
        <time>2019-08-19T12:32:27Z</time>
      </trkpt>
      <trkpt lat="43.61455178" lon="3.007310600">
        <ele>809.00000</ele>
        <time>2019-08-19T12:32:42Z</time>
      </trkpt>
      <trkpt lat="43.61452303" lon="3.007557447">
        <ele>809.00000</ele>
        <time>2019-08-19T12:32:56Z</time>
      </trkpt>
      <trkpt lat="43.61452387" lon="3.007577816">
        <ele>809.00000</ele>
        <time>2019-08-19T12:32:57Z</time>
      </trkpt>
      <trkpt lat="43.61451557" lon="3.007656605">
        <ele>809.00000</ele>
        <time>2019-08-19T12:33:01Z</time>
      </trkpt>
      <trkpt lat="43.61446595" lon="3.007897501">
        <ele>810.00000</ele>
        <time>2019-08-19T12:33:16Z</time>
      </trkpt>
      <trkpt lat="43.61440946" lon="3.008145187">
        <ele>810.00000</ele>
        <time>2019-08-19T12:33:31Z</time>
      </trkpt>
      <trkpt lat="43.61437375" lon="3.008401505">
        <ele>810.00000</ele>
        <time>2019-08-19T12:33:46Z</time>
      </trkpt>
      <trkpt lat="43.61431131" lon="3.008650196">
        <ele>810.00000</ele>
        <time>2019-08-19T12:34:01Z</time>
      </trkpt>
      <trkpt lat="43.61421223" lon="3.008805597">
        <ele>812.00000</ele>
        <time>2019-08-19T12:34:12Z</time>
      </trkpt>
      <trkpt lat="43.61410394" lon="3.009016988">
        <ele>814.00000</ele>
        <time>2019-08-19T12:34:28Z</time>
      </trkpt>
      <trkpt lat="43.61398768" lon="3.009209185">
        <ele>816.00000</ele>
        <time>2019-08-19T12:34:43Z</time>
      </trkpt>
      <trkpt lat="43.61384561" lon="3.009346229">
        <ele>818.00000</ele>
        <time>2019-08-19T12:34:57Z</time>
      </trkpt>
      <trkpt lat="43.61375919" lon="3.009408423">
        <ele>819.00000</ele>
        <time>2019-08-19T12:35:05Z</time>
      </trkpt>
      <trkpt lat="43.61359775" lon="3.009525183">
        <ele>823.00000</ele>
        <time>2019-08-19T12:35:20Z</time>
      </trkpt>
      <trkpt lat="43.61348569" lon="3.009518058">
        <ele>822.00000</ele>
        <time>2019-08-19T12:36:28Z</time>
      </trkpt>
      <trkpt lat="43.61348837" lon="3.009518226">
        <ele>822.00000</ele>
        <time>2019-08-19T12:36:30Z</time>
      </trkpt>
      <trkpt lat="43.61333616" lon="3.009623000">
        <ele>821.00000</ele>
        <time>2019-08-19T12:36:48Z</time>
      </trkpt>
      <trkpt lat="43.61318528" lon="3.009746884">
        <ele>819.00000</ele>
        <time>2019-08-19T12:37:07Z</time>
      </trkpt>
      <trkpt lat="43.61307296" lon="3.009950062">
        <ele>818.00000</ele>
        <time>2019-08-19T12:37:23Z</time>
      </trkpt>
      <trkpt lat="43.61298437" lon="3.010036395">
        <ele>817.00000</ele>
        <time>2019-08-19T12:37:30Z</time>
      </trkpt>
      <trkpt lat="43.61282503" lon="3.010171260">
        <ele>816.00000</ele>
        <time>2019-08-19T12:37:45Z</time>
      </trkpt>
      <trkpt lat="43.61278463" lon="3.010203279">
        <ele>815.00000</ele>
        <time>2019-08-19T12:37:50Z</time>
      </trkpt>
      <trkpt lat="43.61263811" lon="3.010355746">
        <ele>814.00000</ele>
        <time>2019-08-19T12:38:07Z</time>
      </trkpt>
      <trkpt lat="43.61250861" lon="3.010477619">
        <ele>813.00000</ele>
        <time>2019-08-19T12:38:18Z</time>
      </trkpt>
      <trkpt lat="43.61247198" lon="3.010504022">
        <ele>813.00000</ele>
        <time>2019-08-19T12:38:21Z</time>
      </trkpt>
      <trkpt lat="43.61235120" lon="3.010565042">
        <ele>812.00000</ele>
        <time>2019-08-19T12:38:31Z</time>
      </trkpt>
      <trkpt lat="43.61221667" lon="3.010750450">
        <ele>810.00000</ele>
        <time>2019-08-19T12:38:44Z</time>
      </trkpt>
      <trkpt lat="43.61209698" lon="3.010949520">
        <ele>809.00000</ele>
        <time>2019-08-19T12:39:03Z</time>
      </trkpt>
      <trkpt lat="43.61205683" lon="3.011196870">
        <ele>809.00000</ele>
        <time>2019-08-19T12:39:23Z</time>
      </trkpt>
      <trkpt lat="43.61193981" lon="3.011393677">
        <ele>810.00000</ele>
        <time>2019-08-19T12:39:39Z</time>
      </trkpt>
      <trkpt lat="43.61182431" lon="3.011586628">
        <ele>811.00000</ele>
        <time>2019-08-19T12:39:55Z</time>
      </trkpt>
      <trkpt lat="43.61166992" lon="3.011672375">
        <ele>811.00000</ele>
        <time>2019-08-19T12:40:14Z</time>
      </trkpt>
      <trkpt lat="43.61148736" lon="3.011719733">
        <ele>810.00000</ele>
        <time>2019-08-19T12:40:30Z</time>
      </trkpt>
      <trkpt lat="43.61130195" lon="3.011714955">
        <ele>811.00000</ele>
        <time>2019-08-19T12:40:46Z</time>
      </trkpt>
      <trkpt lat="43.61120791" lon="3.011515047">
        <ele>810.00000</ele>
        <time>2019-08-19T12:41:07Z</time>
      </trkpt>
      <trkpt lat="43.61106583" lon="3.011361658">
        <ele>810.00000</ele>
        <time>2019-08-19T12:41:25Z</time>
      </trkpt>
      <trkpt lat="43.61100129" lon="3.011133167">
        <ele>813.00000</ele>
        <time>2019-08-19T12:41:39Z</time>
      </trkpt>
      <trkpt lat="43.61099199" lon="3.011082289">
        <ele>813.00000</ele>
        <time>2019-08-19T12:41:43Z</time>
      </trkpt>
      <trkpt lat="43.61097866" lon="3.011034848">
        <ele>814.00000</ele>
        <time>2019-08-19T12:41:47Z</time>
      </trkpt>
      <trkpt lat="43.61097875" lon="3.010969804">
        <ele>815.00000</ele>
        <time>2019-08-19T12:41:52Z</time>
      </trkpt>
      <trkpt lat="43.61096492" lon="3.010865449">
        <ele>815.00000</ele>
        <time>2019-08-19T12:42:00Z</time>
      </trkpt>
      <trkpt lat="43.61103138" lon="3.010648861">
        <ele>816.00000</ele>
        <time>2019-08-19T12:42:25Z</time>
      </trkpt>
      <trkpt lat="43.61102216" lon="3.010521121">
        <ele>815.00000</ele>
        <time>2019-08-19T12:42:37Z</time>
      </trkpt>
      <trkpt lat="43.61088168" lon="3.010572502">
        <ele>815.00000</ele>
        <time>2019-08-19T12:43:08Z</time>
      </trkpt>
      <trkpt lat="43.61072125" lon="3.010679706">
        <ele>815.00000</ele>
        <time>2019-08-19T12:43:26Z</time>
      </trkpt>
      <trkpt lat="43.61068530" lon="3.010703679">
        <ele>815.00000</ele>
        <time>2019-08-19T12:43:28Z</time>
      </trkpt>
      <trkpt lat="43.61054842" lon="3.010764950">
        <ele>814.00000</ele>
        <time>2019-08-19T12:43:37Z</time>
      </trkpt>
      <trkpt lat="43.61041900" lon="3.010602928">
        <ele>812.00000</ele>
        <time>2019-08-19T12:44:01Z</time>
      </trkpt>
      <trkpt lat="43.61029051" lon="3.010420203">
        <ele>810.00000</ele>
        <time>2019-08-19T12:44:18Z</time>
      </trkpt>
      <trkpt lat="43.61015455" lon="3.010298246">
        <ele>808.00000</ele>
        <time>2019-08-19T12:44:35Z</time>
      </trkpt>
      <trkpt lat="43.61001902" lon="3.010126082">
        <ele>808.00000</ele>
        <time>2019-08-19T12:45:13Z</time>
      </trkpt>
      <trkpt lat="43.60983923" lon="3.010085094">
        <ele>807.00000</ele>
        <time>2019-08-19T12:45:30Z</time>
      </trkpt>
      <trkpt lat="43.60966262" lon="3.010027594">
        <ele>806.00000</ele>
        <time>2019-08-19T12:45:47Z</time>
      </trkpt>
      <trkpt lat="43.60951049" lon="3.009940087">
        <ele>806.00000</ele>
        <time>2019-08-19T12:46:21Z</time>
      </trkpt>
      <trkpt lat="43.60942172" lon="3.009913349">
        <ele>806.00000</ele>
        <time>2019-08-19T12:46:29Z</time>
      </trkpt>
      <trkpt lat="43.60933690" lon="3.009900860">
        <ele>806.00000</ele>
        <time>2019-08-19T12:46:39Z</time>
      </trkpt>
      <trkpt lat="43.60917798" lon="3.009838080">
        <ele>806.00000</ele>
        <time>2019-08-19T12:46:59Z</time>
      </trkpt>
      <trkpt lat="43.60900389" lon="3.009833889">
        <ele>808.00000</ele>
        <time>2019-08-19T12:47:24Z</time>
      </trkpt>
      <trkpt lat="43.60895854" lon="3.009836990">
        <ele>808.00000</ele>
        <time>2019-08-19T12:47:28Z</time>
      </trkpt>
      <trkpt lat="43.60878780" lon="3.009859118">
        <ele>810.00000</ele>
        <time>2019-08-19T12:47:57Z</time>
      </trkpt>
      <trkpt lat="43.60860105" lon="3.009897926">
        <ele>810.00000</ele>
        <time>2019-08-19T12:48:12Z</time>
      </trkpt>
      <trkpt lat="43.60857951" lon="3.009904548">
        <ele>810.00000</ele>
        <time>2019-08-19T12:48:14Z</time>
      </trkpt>
      <trkpt lat="43.60851547" lon="3.009910248">
        <ele>810.00000</ele>
        <time>2019-08-19T12:48:20Z</time>
      </trkpt>
      <trkpt lat="43.60833878" lon="3.009954085">
        <ele>812.00000</ele>
        <time>2019-08-19T12:48:43Z</time>
      </trkpt>
      <trkpt lat="43.60823032" lon="3.009964143">
        <ele>813.00000</ele>
        <time>2019-08-19T12:48:55Z</time>
      </trkpt>
      <trkpt lat="43.60819009" lon="3.009936064">
        <ele>813.00000</ele>
        <time>2019-08-19T12:49:00Z</time>
      </trkpt>
      <trkpt lat="43.60803083" lon="3.009835230">
        <ele>813.00000</ele>
        <time>2019-08-19T12:49:23Z</time>
      </trkpt>
      <trkpt lat="43.60802924" lon="3.009823746">
        <ele>813.00000</ele>
        <time>2019-08-19T12:49:24Z</time>
      </trkpt>
      <trkpt lat="43.60802496" lon="3.009795080">
        <ele>813.00000</ele>
        <time>2019-08-19T12:49:28Z</time>
      </trkpt>
      <trkpt lat="43.60807182" lon="3.009741352">
        <ele>814.00000</ele>
        <time>2019-08-19T12:50:10Z</time>
      </trkpt>
      <trkpt lat="43.60794936" lon="3.009740095">
        <ele>812.00000</ele>
        <time>2019-08-19T12:53:45Z</time>
      </trkpt>
      <trkpt lat="43.60802723" lon="3.009938579">
        <ele>812.00000</ele>
        <time>2019-08-19T12:54:17Z</time>
      </trkpt>
      <trkpt lat="43.60801842" lon="3.010082161">
        <ele>813.00000</ele>
        <time>2019-08-19T12:54:26Z</time>
      </trkpt>
      <trkpt lat="43.60790225" lon="3.010288020">
        <ele>815.00000</ele>
        <time>2019-08-19T12:54:41Z</time>
      </trkpt>
      <trkpt lat="43.60781827" lon="3.010517600">
        <ele>821.00000</ele>
        <time>2019-08-19T12:54:57Z</time>
      </trkpt>
      <trkpt lat="43.60779211" lon="3.010556576">
        <ele>822.00000</ele>
        <time>2019-08-19T12:55:00Z</time>
      </trkpt>
      <trkpt lat="43.60771584" lon="3.010800657">
        <ele>829.00000</ele>
        <time>2019-08-19T12:55:16Z</time>
      </trkpt>
      <trkpt lat="43.60770729" lon="3.010826976">
        <ele>830.00000</ele>
        <time>2019-08-19T12:55:18Z</time>
      </trkpt>
      <trkpt lat="43.60768985" lon="3.010877100">
        <ele>831.00000</ele>
        <time>2019-08-19T12:55:22Z</time>
      </trkpt>
      <trkpt lat="43.60765021" lon="3.010956645">
        <ele>833.00000</ele>
        <time>2019-08-19T12:55:29Z</time>
      </trkpt>
      <trkpt lat="43.60764367" lon="3.011049516">
        <ele>835.00000</ele>
        <time>2019-08-19T12:55:36Z</time>
      </trkpt>
      <trkpt lat="43.60762590" lon="3.011077931">
        <ele>835.00000</ele>
        <time>2019-08-19T12:55:38Z</time>
      </trkpt>
      <trkpt lat="43.60758407" lon="3.011117158">
        <ele>836.00000</ele>
        <time>2019-08-19T12:55:42Z</time>
      </trkpt>
      <trkpt lat="43.60747335" lon="3.011314300">
        <ele>841.00000</ele>
        <time>2019-08-19T12:56:01Z</time>
      </trkpt>
      <trkpt lat="43.60745164" lon="3.011320419">
        <ele>841.00000</ele>
        <time>2019-08-19T12:56:04Z</time>
      </trkpt>
      <trkpt lat="43.60735173" lon="3.011437263">
        <ele>844.00000</ele>
        <time>2019-08-19T12:56:19Z</time>
      </trkpt>
      <trkpt lat="43.60722742" lon="3.011530889">
        <ele>846.00000</ele>
        <time>2019-08-19T12:56:31Z</time>
      </trkpt>
      <trkpt lat="43.60718107" lon="3.011577576">
        <ele>846.00000</ele>
        <time>2019-08-19T12:56:35Z</time>
      </trkpt>
      <trkpt lat="43.60704009" lon="3.011680087">
        <ele>846.00000</ele>
        <time>2019-08-19T12:56:48Z</time>
      </trkpt>
      <trkpt lat="43.60703364" lon="3.011688133">
        <ele>846.00000</ele>
        <time>2019-08-19T12:56:49Z</time>
      </trkpt>
      <trkpt lat="43.60697496" lon="3.011734737">
        <ele>846.00000</ele>
        <time>2019-08-19T12:56:55Z</time>
      </trkpt>
      <trkpt lat="43.60691227" lon="3.011767929">
        <ele>846.00000</ele>
        <time>2019-08-19T12:57:01Z</time>
      </trkpt>
      <trkpt lat="43.60685728" lon="3.011793578">
        <ele>846.00000</ele>
        <time>2019-08-19T12:57:08Z</time>
      </trkpt>
      <trkpt lat="43.60674446" lon="3.011803384">
        <ele>846.00000</ele>
        <time>2019-08-19T12:57:18Z</time>
      </trkpt>
      <trkpt lat="43.60670934" lon="3.011840097">
        <ele>845.00000</ele>
        <time>2019-08-19T12:57:22Z</time>
      </trkpt>
      <trkpt lat="43.60667422" lon="3.011840851">
        <ele>845.00000</ele>
        <time>2019-08-19T12:57:26Z</time>
      </trkpt>
      <trkpt lat="43.60649711" lon="3.011898351">
        <ele>843.00000</ele>
        <time>2019-08-19T12:57:39Z</time>
      </trkpt>
      <trkpt lat="43.60638261" lon="3.011962305">
        <ele>842.00000</ele>
        <time>2019-08-19T12:57:48Z</time>
      </trkpt>
      <trkpt lat="43.60634548" lon="3.012030450">
        <ele>842.00000</ele>
        <time>2019-08-19T12:57:53Z</time>
      </trkpt>
      <trkpt lat="43.60620358" lon="3.012201525">
        <ele>840.00000</ele>
        <time>2019-08-19T12:58:10Z</time>
      </trkpt>
      <trkpt lat="43.60605589" lon="3.012362625">
        <ele>839.00000</ele>
        <time>2019-08-19T12:58:30Z</time>
      </trkpt>
      <trkpt lat="43.60588540" lon="3.012392967">
        <ele>839.00000</ele>
        <time>2019-08-19T12:58:52Z</time>
      </trkpt>
      <trkpt lat="43.60572338" lon="3.012479385">
        <ele>837.00000</ele>
        <time>2019-08-19T12:59:12Z</time>
      </trkpt>
      <trkpt lat="43.60559572" lon="3.012489192">
        <ele>836.00000</ele>
        <time>2019-08-19T12:59:25Z</time>
      </trkpt>
      <trkpt lat="43.60555029" lon="3.012470500">
        <ele>836.00000</ele>
        <time>2019-08-19T12:59:29Z</time>
      </trkpt>
      <trkpt lat="43.60538391" lon="3.012466644">
        <ele>835.00000</ele>
        <time>2019-08-19T12:59:46Z</time>
      </trkpt>
      <trkpt lat="43.60521996" lon="3.012370420">
        <ele>833.00000</ele>
        <time>2019-08-19T13:00:06Z</time>
      </trkpt>
      <trkpt lat="43.60504394" lon="3.012331863">
        <ele>830.00000</ele>
        <time>2019-08-19T13:00:20Z</time>
      </trkpt>
      <trkpt lat="43.60486029" lon="3.012310992">
        <ele>826.00000</ele>
        <time>2019-08-19T13:00:37Z</time>
      </trkpt>
      <trkpt lat="43.60472903" lon="3.012250307">
        <ele>825.00000</ele>
        <time>2019-08-19T13:00:48Z</time>
      </trkpt>
      <trkpt lat="43.60464882" lon="3.012244105">
        <ele>825.00000</ele>
        <time>2019-08-19T13:00:55Z</time>
      </trkpt>
      <trkpt lat="43.60459308" lon="3.012364888">
        <ele>825.00000</ele>
        <time>2019-08-19T13:01:06Z</time>
      </trkpt>
      <trkpt lat="43.60458679" lon="3.012398164">
        <ele>825.00000</ele>
        <time>2019-08-19T13:01:09Z</time>
      </trkpt>
      <trkpt lat="43.60452728" lon="3.012526910">
        <ele>825.00000</ele>
        <time>2019-08-19T13:01:24Z</time>
      </trkpt>
      <trkpt lat="43.60445637" lon="3.012612741">
        <ele>824.00000</ele>
        <time>2019-08-19T13:01:33Z</time>
      </trkpt>
      <trkpt lat="43.60440415" lon="3.012658003">
        <ele>824.00000</ele>
        <time>2019-08-19T13:01:38Z</time>
      </trkpt>
      <trkpt lat="43.60434313" lon="3.012731848">
        <ele>824.00000</ele>
        <time>2019-08-19T13:01:46Z</time>
      </trkpt>
      <trkpt lat="43.60419988" lon="3.012872245">
        <ele>822.00000</ele>
        <time>2019-08-19T13:02:08Z</time>
      </trkpt>
      <trkpt lat="43.60412947" lon="3.012975007">
        <ele>822.00000</ele>
        <time>2019-08-19T13:02:19Z</time>
      </trkpt>
      <trkpt lat="43.60411732" lon="3.012990178">
        <ele>821.00000</ele>
        <time>2019-08-19T13:02:21Z</time>
      </trkpt>
      <trkpt lat="43.60399746" lon="3.013141388">
        <ele>821.00000</ele>
        <time>2019-08-19T13:02:38Z</time>
      </trkpt>
      <trkpt lat="43.60398212" lon="3.013199977">
        <ele>821.00000</ele>
        <time>2019-08-19T13:02:44Z</time>
      </trkpt>
      <trkpt lat="43.60382856" lon="3.013346912">
        <ele>820.00000</ele>
        <time>2019-08-19T13:03:08Z</time>
      </trkpt>
      <trkpt lat="43.60366939" lon="3.013450093">
        <ele>820.00000</ele>
        <time>2019-08-19T13:03:26Z</time>
      </trkpt>
      <trkpt lat="43.60354408" lon="3.013609601">
        <ele>819.00000</ele>
        <time>2019-08-19T13:03:47Z</time>
      </trkpt>
      <trkpt lat="43.60337896" lon="3.013711022">
        <ele>817.00000</ele>
        <time>2019-08-19T13:04:11Z</time>
      </trkpt>
      <trkpt lat="43.60323328" lon="3.013848569">
        <ele>817.00000</ele>
        <time>2019-08-19T13:04:29Z</time>
      </trkpt>
      <trkpt lat="43.60308811" lon="3.013997850">
        <ele>817.00000</ele>
        <time>2019-08-19T13:04:49Z</time>
      </trkpt>
      <trkpt lat="43.60291871" lon="3.014104049">
        <ele>817.00000</ele>
        <time>2019-08-19T13:05:07Z</time>
      </trkpt>
      <trkpt lat="43.60280865" lon="3.014251822">
        <ele>816.00000</ele>
        <time>2019-08-19T13:05:31Z</time>
      </trkpt>
      <trkpt lat="43.60262375" lon="3.014263724">
        <ele>817.00000</ele>
        <time>2019-08-19T13:05:46Z</time>
      </trkpt>
      <trkpt lat="43.60258813" lon="3.014255762">
        <ele>818.00000</ele>
        <time>2019-08-19T13:05:50Z</time>
      </trkpt>
      <trkpt lat="43.60256172" lon="3.014257522">
        <ele>818.00000</ele>
        <time>2019-08-19T13:05:53Z</time>
      </trkpt>
      <trkpt lat="43.60247698" lon="3.014343185">
        <ele>821.00000</ele>
        <time>2019-08-19T13:06:05Z</time>
      </trkpt>
      <trkpt lat="43.60235125" lon="3.014525743">
        <ele>824.00000</ele>
        <time>2019-08-19T13:06:22Z</time>
      </trkpt>
      <trkpt lat="43.60230750" lon="3.014565557">
        <ele>825.00000</ele>
        <time>2019-08-19T13:06:26Z</time>
      </trkpt>
      <trkpt lat="43.60228084" lon="3.014617944">
        <ele>826.00000</ele>
        <time>2019-08-19T13:06:31Z</time>
      </trkpt>
      <trkpt lat="43.60223240" lon="3.014628756">
        <ele>826.00000</ele>
        <time>2019-08-19T13:06:36Z</time>
      </trkpt>
      <trkpt lat="43.60217045" lon="3.014665720">
        <ele>827.00000</ele>
        <time>2019-08-19T13:06:41Z</time>
      </trkpt>
      <trkpt lat="43.60212695" lon="3.014708301">
        <ele>827.00000</ele>
        <time>2019-08-19T13:06:46Z</time>
      </trkpt>
      <trkpt lat="43.60195395" lon="3.014788851">
        <ele>826.00000</ele>
        <time>2019-08-19T13:07:03Z</time>
      </trkpt>
      <trkpt lat="43.60178112" lon="3.014793461">
        <ele>826.00000</ele>
        <time>2019-08-19T13:07:22Z</time>
      </trkpt>
      <trkpt lat="43.60160468" lon="3.014743505">
        <ele>826.00000</ele>
        <time>2019-08-19T13:07:39Z</time>
      </trkpt>
      <trkpt lat="43.60142086" lon="3.014720119">
        <ele>826.00000</ele>
        <time>2019-08-19T13:08:00Z</time>
      </trkpt>
      <trkpt lat="43.60124342" lon="3.014683742">
        <ele>826.00000</ele>
        <time>2019-08-19T13:08:19Z</time>
      </trkpt>
      <trkpt lat="43.60106371" lon="3.014720873">
        <ele>827.00000</ele>
        <time>2019-08-19T13:08:33Z</time>
      </trkpt>
      <trkpt lat="43.60099431" lon="3.014736380">
        <ele>827.00000</ele>
        <time>2019-08-19T13:08:39Z</time>
      </trkpt>
      <trkpt lat="43.60093454" lon="3.014800418">
        <ele>828.00000</ele>
        <time>2019-08-19T13:08:47Z</time>
      </trkpt>
      <trkpt lat="43.60091661" lon="3.014805866">
        <ele>828.00000</ele>
        <time>2019-08-19T13:08:50Z</time>
      </trkpt>
      <trkpt lat="43.60073338" lon="3.014854900">
        <ele>829.00000</ele>
        <time>2019-08-19T13:09:08Z</time>
      </trkpt>
      <trkpt lat="43.60056582" lon="3.014943413">
        <ele>830.00000</ele>
        <time>2019-08-19T13:09:25Z</time>
      </trkpt>
      <trkpt lat="43.60049122" lon="3.014950286">
        <ele>831.00000</ele>
        <time>2019-08-19T13:09:32Z</time>
      </trkpt>
      <trkpt lat="43.60031395" lon="3.015004349">
        <ele>833.00000</ele>
        <time>2019-08-19T13:09:46Z</time>
      </trkpt>
      <trkpt lat="43.60018537" lon="3.015077775">
        <ele>835.00000</ele>
        <time>2019-08-19T13:09:58Z</time>
      </trkpt>
      <trkpt lat="43.60015410" lon="3.015154050">
        <ele>836.00000</ele>
        <time>2019-08-19T13:10:03Z</time>
      </trkpt>
      <trkpt lat="43.60014975" lon="3.015200821">
        <ele>837.00000</ele>
        <time>2019-08-19T13:10:06Z</time>
      </trkpt>
      <trkpt lat="43.60013348" lon="3.015245245">
        <ele>838.00000</ele>
        <time>2019-08-19T13:10:10Z</time>
      </trkpt>
      <trkpt lat="43.60012200" lon="3.015274414">
        <ele>838.00000</ele>
        <time>2019-08-19T13:10:13Z</time>
      </trkpt>
      <trkpt lat="43.60006039" lon="3.015442220">
        <ele>840.00000</ele>
        <time>2019-08-19T13:10:29Z</time>
      </trkpt>
      <trkpt lat="43.59992654" lon="3.015602650">
        <ele>841.00000</ele>
        <time>2019-08-19T13:10:48Z</time>
      </trkpt>
      <trkpt lat="43.59985311" lon="3.015785878">
        <ele>840.00000</ele>
        <time>2019-08-19T13:11:04Z</time>
      </trkpt>
      <trkpt lat="43.59970768" lon="3.015923341">
        <ele>840.00000</ele>
        <time>2019-08-19T13:11:27Z</time>
      </trkpt>
      <trkpt lat="43.59957684" lon="3.016098104">
        <ele>837.00000</ele>
        <time>2019-08-19T13:11:48Z</time>
      </trkpt>
      <trkpt lat="43.59943427" lon="3.016206566">
        <ele>834.00000</ele>
        <time>2019-08-19T13:12:13Z</time>
      </trkpt>
      <trkpt lat="43.59925590" lon="3.016260880">
        <ele>832.00000</ele>
        <time>2019-08-19T13:12:31Z</time>
      </trkpt>
      <trkpt lat="43.59914526" lon="3.016275968">
        <ele>830.00000</ele>
        <time>2019-08-19T13:12:42Z</time>
      </trkpt>
      <trkpt lat="43.59895817" lon="3.016299605">
        <ele>826.00000</ele>
        <time>2019-08-19T13:13:01Z</time>
      </trkpt>
      <trkpt lat="43.59877302" lon="3.016289966">
        <ele>825.00000</ele>
        <time>2019-08-19T13:13:18Z</time>
      </trkpt>
      <trkpt lat="43.59860639" lon="3.016217462">
        <ele>824.00000</ele>
        <time>2019-08-19T13:13:41Z</time>
      </trkpt>
      <trkpt lat="43.59847806" lon="3.016362637">
        <ele>821.00000</ele>
        <time>2019-08-19T13:14:10Z</time>
      </trkpt>
      <trkpt lat="43.59834588" lon="3.016454502">
        <ele>819.00000</ele>
        <time>2019-08-19T13:14:38Z</time>
      </trkpt>
      <trkpt lat="43.59820405" lon="3.016465064">
        <ele>815.00000</ele>
        <time>2019-08-19T13:15:09Z</time>
      </trkpt>
      <trkpt lat="43.59821604" lon="3.016709564">
        <ele>811.00000</ele>
        <time>2019-08-19T13:15:34Z</time>
      </trkpt>
      <trkpt lat="43.59817430" lon="3.016818277">
        <ele>810.00000</ele>
        <time>2019-08-19T13:15:44Z</time>
      </trkpt>
      <trkpt lat="43.59819601" lon="3.016865048">
        <ele>809.00000</ele>
        <time>2019-08-19T13:15:49Z</time>
      </trkpt>
      <trkpt lat="43.59818981" lon="3.016878291">
        <ele>809.00000</ele>
        <time>2019-08-19T13:15:50Z</time>
      </trkpt>
      <trkpt lat="43.59818260" lon="3.016914837">
        <ele>808.00000</ele>
        <time>2019-08-19T13:15:54Z</time>
      </trkpt>
      <trkpt lat="43.59820942" lon="3.017162354">
        <ele>803.00000</ele>
        <time>2019-08-19T13:16:21Z</time>
      </trkpt>
      <trkpt lat="43.59819224" lon="3.017394952">
        <ele>798.00000</ele>
        <time>2019-08-19T13:16:48Z</time>
      </trkpt>
      <trkpt lat="43.59816156" lon="3.017646661">
        <ele>794.00000</ele>
        <time>2019-08-19T13:17:14Z</time>
      </trkpt>
      <trkpt lat="43.59809325" lon="3.017884204">
        <ele>792.00000</ele>
        <time>2019-08-19T13:17:31Z</time>
      </trkpt>
      <trkpt lat="43.59808394" lon="3.017913037">
        <ele>792.00000</ele>
        <time>2019-08-19T13:17:33Z</time>
      </trkpt>
      <trkpt lat="43.59804513" lon="3.017988223">
        <ele>791.00000</ele>
        <time>2019-08-19T13:17:39Z</time>
      </trkpt>
      <trkpt lat="43.59805142" lon="3.018228616">
        <ele>791.00000</ele>
        <time>2019-08-19T13:18:01Z</time>
      </trkpt>
      <trkpt lat="43.59803440" lon="3.018477810">
        <ele>789.00000</ele>
        <time>2019-08-19T13:18:24Z</time>
      </trkpt>
      <trkpt lat="43.59811990" lon="3.018594821">
        <ele>787.00000</ele>
        <time>2019-08-19T13:18:35Z</time>
      </trkpt>
      <trkpt lat="43.59815192" lon="3.018828174">
        <ele>785.00000</ele>
        <time>2019-08-19T13:18:52Z</time>
      </trkpt>
      <trkpt lat="43.59813792" lon="3.018913082">
        <ele>785.00000</ele>
        <time>2019-08-19T13:18:59Z</time>
      </trkpt>
      <trkpt lat="43.59813516" lon="3.018966643">
        <ele>784.00000</ele>
        <time>2019-08-19T13:19:03Z</time>
      </trkpt>
      <trkpt lat="43.59813616" lon="3.018987933">
        <ele>784.00000</ele>
        <time>2019-08-19T13:19:05Z</time>
      </trkpt>
      <trkpt lat="43.59808771" lon="3.019137466">
        <ele>782.00000</ele>
        <time>2019-08-19T13:19:19Z</time>
      </trkpt>
      <trkpt lat="43.59808679" lon="3.019155152">
        <ele>782.00000</ele>
        <time>2019-08-19T13:19:21Z</time>
      </trkpt>
      <trkpt lat="43.59808579" lon="3.019395377">
        <ele>781.00000</ele>
        <time>2019-08-19T13:19:48Z</time>
      </trkpt>
      <trkpt lat="43.59813365" lon="3.019640631">
        <ele>778.00000</ele>
        <time>2019-08-19T13:20:12Z</time>
      </trkpt>
      <trkpt lat="43.59815192" lon="3.019892256">
        <ele>774.00000</ele>
        <time>2019-08-19T13:20:40Z</time>
      </trkpt>
      <trkpt lat="43.59806835" lon="3.019924778">
        <ele>772.00000</ele>
        <time>2019-08-19T13:20:50Z</time>
      </trkpt>
      <trkpt lat="43.59791781" lon="3.019784884">
        <ele>770.00000</ele>
        <time>2019-08-19T13:21:15Z</time>
      </trkpt>
      <trkpt lat="43.59780692" lon="3.019594866">
        <ele>768.00000</ele>
        <time>2019-08-19T13:21:35Z</time>
      </trkpt>
      <trkpt lat="43.59769511" lon="3.019392108">
        <ele>765.00000</ele>
        <time>2019-08-19T13:21:55Z</time>
      </trkpt>
      <trkpt lat="43.59764322" lon="3.019265877">
        <ele>765.00000</ele>
        <time>2019-08-19T13:22:05Z</time>
      </trkpt>
      <trkpt lat="43.59751297" lon="3.019080301">
        <ele>764.00000</ele>
        <time>2019-08-19T13:22:30Z</time>
      </trkpt>
      <trkpt lat="43.59738305" lon="3.018893050">
        <ele>763.00000</ele>
        <time>2019-08-19T13:22:55Z</time>
      </trkpt>
      <trkpt lat="43.59727249" lon="3.018687358">
        <ele>761.00000</ele>
        <time>2019-08-19T13:23:19Z</time>
      </trkpt>
      <trkpt lat="43.59711642" lon="3.018571268">
        <ele>759.00000</ele>
        <time>2019-08-19T13:23:42Z</time>
      </trkpt>
      <trkpt lat="43.59720250" lon="3.018786516">
        <ele>756.00000</ele>
        <time>2019-08-19T13:24:09Z</time>
      </trkpt>
      <trkpt lat="43.59725723" lon="3.019025065">
        <ele>752.00000</ele>
        <time>2019-08-19T13:24:31Z</time>
      </trkpt>
      <trkpt lat="43.59730107" lon="3.019274594">
        <ele>750.00000</ele>
        <time>2019-08-19T13:24:51Z</time>
      </trkpt>
      <trkpt lat="43.59730174" lon="3.019325304">
        <ele>749.00000</ele>
        <time>2019-08-19T13:24:55Z</time>
      </trkpt>
      <trkpt lat="43.59735958" lon="3.019565949">
        <ele>747.00000</ele>
        <time>2019-08-19T13:25:11Z</time>
      </trkpt>
      <trkpt lat="43.59736645" lon="3.019685726">
        <ele>747.00000</ele>
        <time>2019-08-19T13:25:18Z</time>
      </trkpt>
      <trkpt lat="43.59737215" lon="3.019869122">
        <ele>747.00000</ele>
        <time>2019-08-19T13:25:30Z</time>
      </trkpt>
      <trkpt lat="43.59732303" lon="3.019972555">
        <ele>746.00000</ele>
        <time>2019-08-19T13:25:40Z</time>
      </trkpt>
      <trkpt lat="43.59720359" lon="3.019786812">
        <ele>744.00000</ele>
        <time>2019-08-19T13:26:04Z</time>
      </trkpt>
      <trkpt lat="43.59710854" lon="3.019573828">
        <ele>741.00000</ele>
        <time>2019-08-19T13:26:28Z</time>
      </trkpt>
      <trkpt lat="43.59699932" lon="3.019366292">
        <ele>739.00000</ele>
        <time>2019-08-19T13:26:48Z</time>
      </trkpt>
      <trkpt lat="43.59696429" lon="3.019307702">
        <ele>738.00000</ele>
        <time>2019-08-19T13:26:54Z</time>
      </trkpt>
      <trkpt lat="43.59685868" lon="3.019106285">
        <ele>735.00000</ele>
        <time>2019-08-19T13:27:13Z</time>
      </trkpt>
      <trkpt lat="43.59683571" lon="3.019049372">
        <ele>735.00000</ele>
        <time>2019-08-19T13:27:18Z</time>
      </trkpt>
      <trkpt lat="43.59680185" lon="3.018983323">
        <ele>734.00000</ele>
        <time>2019-08-19T13:27:24Z</time>
      </trkpt>
      <trkpt lat="43.59663924" lon="3.018874190">
        <ele>730.00000</ele>
        <time>2019-08-19T13:27:44Z</time>
      </trkpt>
      <trkpt lat="43.59662390" lon="3.018867569">
        <ele>729.00000</ele>
        <time>2019-08-19T13:27:46Z</time>
      </trkpt>
      <trkpt lat="43.59670856" lon="3.019082145">
        <ele>723.00000</ele>
        <time>2019-08-19T13:28:14Z</time>
      </trkpt>
      <trkpt lat="43.59674401" lon="3.019331088">
        <ele>719.00000</ele>
        <time>2019-08-19T13:28:37Z</time>
      </trkpt>
      <trkpt lat="43.59678206" lon="3.019575336">
        <ele>716.00000</ele>
        <time>2019-08-19T13:29:01Z</time>
      </trkpt>
      <trkpt lat="43.59677419" lon="3.019755547">
        <ele>714.00000</ele>
        <time>2019-08-19T13:29:15Z</time>
      </trkpt>
      <trkpt lat="43.59677921" lon="3.020003149">
        <ele>711.00000</ele>
        <time>2019-08-19T13:29:33Z</time>
      </trkpt>
      <trkpt lat="43.59672750" lon="3.020241782">
        <ele>708.00000</ele>
        <time>2019-08-19T13:29:51Z</time>
      </trkpt>
      <trkpt lat="43.59669489" lon="3.020255779">
        <ele>707.00000</ele>
        <time>2019-08-19T13:29:56Z</time>
      </trkpt>
      <trkpt lat="43.59667771" lon="3.020223844">
        <ele>707.00000</ele>
        <time>2019-08-19T13:30:00Z</time>
      </trkpt>
      <trkpt lat="43.59658576" lon="3.020003736">
        <ele>703.00000</ele>
        <time>2019-08-19T13:30:24Z</time>
      </trkpt>
      <trkpt lat="43.59650605" lon="3.019783878">
        <ele>701.00000</ele>
        <time>2019-08-19T13:30:44Z</time>
      </trkpt>
      <trkpt lat="43.59639876" lon="3.019572403">
        <ele>699.00000</ele>
        <time>2019-08-19T13:31:03Z</time>
      </trkpt>
      <trkpt lat="43.59624554" lon="3.019423708">
        <ele>696.00000</ele>
        <time>2019-08-19T13:31:20Z</time>
      </trkpt>
      <trkpt lat="43.59608226" lon="3.019324215">
        <ele>692.00000</ele>
        <time>2019-08-19T13:31:43Z</time>
      </trkpt>
      <trkpt lat="43.59614965" lon="3.019519848">
        <ele>688.00000</ele>
        <time>2019-08-19T13:32:07Z</time>
      </trkpt>
      <trkpt lat="43.59624596" lon="3.019706849">
        <ele>686.00000</ele>
        <time>2019-08-19T13:32:32Z</time>
      </trkpt>
      <trkpt lat="43.59624378" lon="3.019952187">
        <ele>683.00000</ele>
        <time>2019-08-19T13:32:50Z</time>
      </trkpt>
      <trkpt lat="43.59626071" lon="3.020198866">
        <ele>681.00000</ele>
        <time>2019-08-19T13:33:11Z</time>
      </trkpt>
      <trkpt lat="43.59626867" lon="3.020269442">
        <ele>680.00000</ele>
        <time>2019-08-19T13:33:16Z</time>
      </trkpt>
      <trkpt lat="43.59626825" lon="3.020512266">
        <ele>679.00000</ele>
        <time>2019-08-19T13:33:33Z</time>
      </trkpt>
      <trkpt lat="43.59620715" lon="3.020567167">
        <ele>677.00000</ele>
        <time>2019-08-19T13:33:40Z</time>
      </trkpt>
      <trkpt lat="43.59617002" lon="3.020542440">
        <ele>677.00000</ele>
        <time>2019-08-19T13:33:44Z</time>
      </trkpt>
      <trkpt lat="43.59607840" lon="3.020329456">
        <ele>674.00000</ele>
        <time>2019-08-19T13:34:12Z</time>
      </trkpt>
      <trkpt lat="43.59598780" lon="3.020110102">
        <ele>670.00000</ele>
        <time>2019-08-19T13:34:35Z</time>
      </trkpt>
      <trkpt lat="43.59589501" lon="3.020105743">
        <ele>667.00000</ele>
        <time>2019-08-19T13:35:03Z</time>
      </trkpt>
      <trkpt lat="43.59587648" lon="3.020347980">
        <ele>663.00000</ele>
        <time>2019-08-19T13:35:31Z</time>
      </trkpt>
      <trkpt lat="43.59590909" lon="3.020462477">
        <ele>661.00000</ele>
        <time>2019-08-19T13:35:39Z</time>
      </trkpt>
      <trkpt lat="43.59592560" lon="3.020519055">
        <ele>660.00000</ele>
        <time>2019-08-19T13:35:43Z</time>
      </trkpt>
      <trkpt lat="43.59592300" lon="3.020563898">
        <ele>660.00000</ele>
        <time>2019-08-19T13:35:46Z</time>
      </trkpt>
      <trkpt lat="43.59592384" lon="3.020720388">
        <ele>657.00000</ele>
        <time>2019-08-19T13:36:00Z</time>
      </trkpt>
      <trkpt lat="43.59591621" lon="3.020815020">
        <ele>656.00000</ele>
        <time>2019-08-19T13:36:06Z</time>
      </trkpt>
      <trkpt lat="43.59588403" lon="3.021059101">
        <ele>650.00000</ele>
        <time>2019-08-19T13:36:27Z</time>
      </trkpt>
      <trkpt lat="43.59585159" lon="3.021313240">
        <ele>646.00000</ele>
        <time>2019-08-19T13:36:48Z</time>
      </trkpt>
      <trkpt lat="43.59579049" lon="3.021548939">
        <ele>641.00000</ele>
        <time>2019-08-19T13:37:11Z</time>
      </trkpt>
      <trkpt lat="43.59577154" lon="3.021799558">
        <ele>637.00000</ele>
        <time>2019-08-19T13:37:32Z</time>
      </trkpt>
      <trkpt lat="43.59569644" lon="3.021946828">
        <ele>634.00000</ele>
        <time>2019-08-19T13:37:49Z</time>
      </trkpt>
      <trkpt lat="43.59562989" lon="3.021703921">
        <ele>630.00000</ele>
        <time>2019-08-19T13:38:15Z</time>
      </trkpt>
      <trkpt lat="43.59555210" lon="3.021471993">
        <ele>628.00000</ele>
        <time>2019-08-19T13:38:33Z</time>
      </trkpt>
      <trkpt lat="43.59546753" lon="3.021248783">
        <ele>625.00000</ele>
        <time>2019-08-19T13:38:55Z</time>
      </trkpt>
      <trkpt lat="43.59535295" lon="3.021051557">
        <ele>622.00000</ele>
        <time>2019-08-19T13:39:16Z</time>
      </trkpt>
      <trkpt lat="43.59525279" lon="3.020838992">
        <ele>618.00000</ele>
        <time>2019-08-19T13:39:40Z</time>
      </trkpt>
      <trkpt lat="43.59517098" lon="3.020607149">
        <ele>614.00000</ele>
        <time>2019-08-19T13:40:03Z</time>
      </trkpt>
      <trkpt lat="43.59499923" lon="3.020518552">
        <ele>611.00000</ele>
        <time>2019-08-19T13:40:27Z</time>
      </trkpt>
      <trkpt lat="43.59482229" lon="3.020482845">
        <ele>607.00000</ele>
        <time>2019-08-19T13:40:46Z</time>
      </trkpt>
      <trkpt lat="43.59463906" lon="3.020469350">
        <ele>603.00000</ele>
        <time>2019-08-19T13:41:07Z</time>
      </trkpt>
      <trkpt lat="43.59463219" lon="3.020477900">
        <ele>603.00000</ele>
        <time>2019-08-19T13:41:08Z</time>
      </trkpt>
      <trkpt lat="43.59445542" lon="3.020501621">
        <ele>599.00000</ele>
        <time>2019-08-19T13:41:31Z</time>
      </trkpt>
      <trkpt lat="43.59428384" lon="3.020585272">
        <ele>595.00000</ele>
        <time>2019-08-19T13:41:54Z</time>
      </trkpt>
      <trkpt lat="43.59443522" lon="3.020711923">
        <ele>591.00000</ele>
        <time>2019-08-19T13:42:18Z</time>
      </trkpt>
      <trkpt lat="43.59460755" lon="3.020799346">
        <ele>588.00000</ele>
        <time>2019-08-19T13:42:36Z</time>
      </trkpt>
      <trkpt lat="43.59477661" lon="3.020848464">
        <ele>585.00000</ele>
        <time>2019-08-19T13:42:58Z</time>
      </trkpt>
      <trkpt lat="43.59478985" lon="3.020911579">
        <ele>585.00000</ele>
        <time>2019-08-19T13:43:04Z</time>
      </trkpt>
      <trkpt lat="43.59477845" lon="3.020969666">
        <ele>584.00000</ele>
        <time>2019-08-19T13:43:08Z</time>
      </trkpt>
      <trkpt lat="43.59474694" lon="3.021217603">
        <ele>582.00000</ele>
        <time>2019-08-19T13:43:30Z</time>
      </trkpt>
      <trkpt lat="43.59467846" lon="3.021443160">
        <ele>579.00000</ele>
        <time>2019-08-19T13:43:55Z</time>
      </trkpt>
      <trkpt lat="43.59459950" lon="3.021671734">
        <ele>577.00000</ele>
        <time>2019-08-19T13:44:17Z</time>
      </trkpt>
      <trkpt lat="43.59460805" lon="3.021740298">
        <ele>576.00000</ele>
        <time>2019-08-19T13:44:22Z</time>
      </trkpt>
      <trkpt lat="43.59457972" lon="3.021789500">
        <ele>576.00000</ele>
        <time>2019-08-19T13:44:27Z</time>
      </trkpt>
      <trkpt lat="43.59455927" lon="3.021809868">
        <ele>576.00000</ele>
        <time>2019-08-19T13:44:30Z</time>
      </trkpt>
      <trkpt lat="43.59452482" lon="3.021846748">
        <ele>575.00000</ele>
        <time>2019-08-19T13:44:34Z</time>
      </trkpt>
      <trkpt lat="43.59441024" lon="3.022041544">
        <ele>573.00000</ele>
        <time>2019-08-19T13:44:52Z</time>
      </trkpt>
      <trkpt lat="43.59441225" lon="3.022056212">
        <ele>573.00000</ele>
        <time>2019-08-19T13:44:54Z</time>
      </trkpt>
      <trkpt lat="43.59429557" lon="3.022242877">
        <ele>570.00000</ele>
        <time>2019-08-19T13:45:15Z</time>
      </trkpt>
      <trkpt lat="43.59419256" lon="3.022292917">
        <ele>568.00000</ele>
        <time>2019-08-19T13:45:28Z</time>
      </trkpt>
      <trkpt lat="43.59418753" lon="3.022077167">
        <ele>564.00000</ele>
        <time>2019-08-19T13:45:56Z</time>
      </trkpt>
      <trkpt lat="43.59426867" lon="3.021849095">
        <ele>562.00000</ele>
        <time>2019-08-19T13:46:16Z</time>
      </trkpt>
      <trkpt lat="43.59414051" lon="3.021808192">
        <ele>558.00000</ele>
        <time>2019-08-19T13:46:42Z</time>
      </trkpt>
      <trkpt lat="43.59403079" lon="3.021915731">
        <ele>555.00000</ele>
        <time>2019-08-19T13:47:00Z</time>
      </trkpt>
      <trkpt lat="43.59391730" lon="3.022103654">
        <ele>552.00000</ele>
        <time>2019-08-19T13:47:18Z</time>
      </trkpt>
      <trkpt lat="43.59387279" lon="3.022144641">
        <ele>551.00000</ele>
        <time>2019-08-19T13:47:23Z</time>
      </trkpt>
      <trkpt lat="43.59384094" lon="3.022182863">
        <ele>551.00000</ele>
        <time>2019-08-19T13:47:28Z</time>
      </trkpt>
      <trkpt lat="43.59383222" lon="3.022199627">
        <ele>550.00000</ele>
        <time>2019-08-19T13:47:30Z</time>
      </trkpt>
      <trkpt lat="43.59369509" lon="3.022375898">
        <ele>547.00000</ele>
        <time>2019-08-19T13:47:49Z</time>
      </trkpt>
      <trkpt lat="43.59352712" lon="3.022478912">
        <ele>543.00000</ele>
        <time>2019-08-19T13:48:06Z</time>
      </trkpt>
      <trkpt lat="43.59339879" lon="3.022614950">
        <ele>541.00000</ele>
        <time>2019-08-19T13:48:20Z</time>
      </trkpt>
      <trkpt lat="43.59337926" lon="3.022612603">
        <ele>540.00000</ele>
        <time>2019-08-19T13:48:22Z</time>
      </trkpt>
      <trkpt lat="43.59348404" lon="3.022446557">
        <ele>538.00000</ele>
        <time>2019-08-19T13:48:45Z</time>
      </trkpt>
      <trkpt lat="43.59349384" lon="3.022431638">
        <ele>538.00000</ele>
        <time>2019-08-19T13:48:47Z</time>
      </trkpt>
      <trkpt lat="43.59350767" lon="3.022395512">
        <ele>538.00000</ele>
        <time>2019-08-19T13:48:51Z</time>
      </trkpt>
      <trkpt lat="43.59354254" lon="3.022342957">
        <ele>537.00000</ele>
        <time>2019-08-19T13:48:56Z</time>
      </trkpt>
      <trkpt lat="43.59359912" lon="3.022244302">
        <ele>535.00000</ele>
        <time>2019-08-19T13:49:08Z</time>
      </trkpt>
      <trkpt lat="43.59356685" lon="3.022162662">
        <ele>535.00000</ele>
        <time>2019-08-19T13:49:17Z</time>
      </trkpt>
      <trkpt lat="43.59338195" lon="3.022194681">
        <ele>533.00000</ele>
        <time>2019-08-19T13:49:43Z</time>
      </trkpt>
      <trkpt lat="43.59322302" lon="3.022316386">
        <ele>531.00000</ele>
        <time>2019-08-19T13:50:10Z</time>
      </trkpt>
      <trkpt lat="43.59307358" lon="3.022393165">
        <ele>531.00000</ele>
        <time>2019-08-19T13:50:27Z</time>
      </trkpt>
      <trkpt lat="43.59303485" lon="3.022413114">
        <ele>531.00000</ele>
        <time>2019-08-19T13:50:34Z</time>
      </trkpt>
      <trkpt lat="43.59294835" lon="3.022410599">
        <ele>530.00000</ele>
        <time>2019-08-19T13:50:41Z</time>
      </trkpt>
      <trkpt lat="43.59289898" lon="3.022432560">
        <ele>530.00000</ele>
        <time>2019-08-19T13:50:45Z</time>
      </trkpt>
      <trkpt lat="43.59287744" lon="3.022442869">
        <ele>530.00000</ele>
        <time>2019-08-19T13:50:47Z</time>
      </trkpt>
      <trkpt lat="43.59283452" lon="3.022447563">
        <ele>530.00000</ele>
        <time>2019-08-19T13:50:51Z</time>
      </trkpt>
      <trkpt lat="43.59282019" lon="3.022450245">
        <ele>529.00000</ele>
        <time>2019-08-19T13:50:53Z</time>
      </trkpt>
      <trkpt lat="43.59274433" lon="3.022449910">
        <ele>529.00000</ele>
        <time>2019-08-19T13:51:02Z</time>
      </trkpt>
      <trkpt lat="43.59266932" lon="3.022414455">
        <ele>529.00000</ele>
        <time>2019-08-19T13:51:09Z</time>
      </trkpt>
      <trkpt lat="43.59264576" lon="3.022403474">
        <ele>529.00000</ele>
        <time>2019-08-19T13:51:11Z</time>
      </trkpt>
      <trkpt lat="43.59273771" lon="3.022333653">
        <ele>528.00000</ele>
        <time>2019-08-19T13:51:23Z</time>
      </trkpt>
      <trkpt lat="43.59273822" lon="3.022324852">
        <ele>528.00000</ele>
        <time>2019-08-19T13:51:24Z</time>
      </trkpt>
      <trkpt lat="43.59282421" lon="3.022309681">
        <ele>528.00000</ele>
        <time>2019-08-19T13:51:31Z</time>
      </trkpt>
      <trkpt lat="43.59286604" lon="3.022288894">
        <ele>528.00000</ele>
        <time>2019-08-19T13:51:36Z</time>
      </trkpt>
      <trkpt lat="43.59283871" lon="3.022215887">
        <ele>527.00000</ele>
        <time>2019-08-19T13:51:46Z</time>
      </trkpt>
      <trkpt lat="43.59280904" lon="3.022193675">
        <ele>527.00000</ele>
        <time>2019-08-19T13:51:50Z</time>
      </trkpt>
      <trkpt lat="43.59277401" lon="3.022176912">
        <ele>527.00000</ele>
        <time>2019-08-19T13:51:54Z</time>
      </trkpt>
      <trkpt lat="43.59276085" lon="3.022176492">
        <ele>526.00000</ele>
        <time>2019-08-19T13:51:56Z</time>
      </trkpt>
      <trkpt lat="43.59273009" lon="3.022199794">
        <ele>526.00000</ele>
        <time>2019-08-19T13:52:04Z</time>
      </trkpt>
      <trkpt lat="43.59268851" lon="3.022194681">
        <ele>526.00000</ele>
        <time>2019-08-19T13:52:09Z</time>
      </trkpt>
      <trkpt lat="43.59260804" lon="3.022128297">
        <ele>526.00000</ele>
        <time>2019-08-19T13:52:21Z</time>
      </trkpt>
      <trkpt lat="43.59263403" lon="3.022080939">
        <ele>525.00000</ele>
        <time>2019-08-19T13:52:26Z</time>
      </trkpt>
      <trkpt lat="43.59265792" lon="3.022064259">
        <ele>524.00000</ele>
        <time>2019-08-19T13:52:29Z</time>
      </trkpt>
      <trkpt lat="43.59270947" lon="3.022037018">
        <ele>523.00000</ele>
        <time>2019-08-19T13:52:33Z</time>
      </trkpt>
      <trkpt lat="43.59272078" lon="3.021998209">
        <ele>523.00000</ele>
        <time>2019-08-19T13:52:37Z</time>
      </trkpt>
      <trkpt lat="43.59275171" lon="3.021986223">
        <ele>523.00000</ele>
        <time>2019-08-19T13:52:41Z</time>
      </trkpt>
      <trkpt lat="43.59272162" lon="3.021949511">
        <ele>523.00000</ele>
        <time>2019-08-19T13:52:48Z</time>
      </trkpt>
      <trkpt lat="43.59269044" lon="3.021930735">
        <ele>522.00000</ele>
        <time>2019-08-19T13:52:51Z</time>
      </trkpt>
      <trkpt lat="43.59264601" lon="3.021912546">
        <ele>521.00000</ele>
        <time>2019-08-19T13:52:55Z</time>
      </trkpt>
      <trkpt lat="43.59261006" lon="3.021914055">
        <ele>521.00000</ele>
        <time>2019-08-19T13:52:59Z</time>
      </trkpt>
      <trkpt lat="43.59255172" lon="3.021861417">
        <ele>520.00000</ele>
        <time>2019-08-19T13:53:13Z</time>
      </trkpt>
      <trkpt lat="43.59262824" lon="3.021736443">
        <ele>517.00000</ele>
        <time>2019-08-19T13:53:30Z</time>
      </trkpt>
      <trkpt lat="43.59261182" lon="3.021665783">
        <ele>515.00000</ele>
        <time>2019-08-19T13:53:38Z</time>
      </trkpt>
      <trkpt lat="43.59263738" lon="3.021551873">
        <ele>511.00000</ele>
        <time>2019-08-19T13:54:01Z</time>
      </trkpt>
      <trkpt lat="43.59267166" lon="3.021547598">
        <ele>510.00000</ele>
        <time>2019-08-19T13:54:04Z</time>
      </trkpt>
      <trkpt lat="43.59268801" lon="3.021501414">
        <ele>510.00000</ele>
        <time>2019-08-19T13:54:08Z</time>
      </trkpt>
      <trkpt lat="43.59269077" lon="3.021478364">
        <ele>510.00000</ele>
        <time>2019-08-19T13:54:10Z</time>
      </trkpt>
      <trkpt lat="43.59269832" lon="3.021330591">
        <ele>509.00000</ele>
        <time>2019-08-19T13:54:23Z</time>
      </trkpt>
      <trkpt lat="43.59262464" lon="3.021208131">
        <ele>507.00000</ele>
        <time>2019-08-19T13:54:35Z</time>
      </trkpt>
      <trkpt lat="43.59257896" lon="3.020964553">
        <ele>501.00000</ele>
        <time>2019-08-19T13:54:56Z</time>
      </trkpt>
      <trkpt lat="43.59256186" lon="3.020717203">
        <ele>498.00000</ele>
        <time>2019-08-19T13:55:18Z</time>
      </trkpt>
      <trkpt lat="43.59256798" lon="3.020461890">
        <ele>495.00000</ele>
        <time>2019-08-19T13:55:36Z</time>
      </trkpt>
      <trkpt lat="43.59255365" lon="3.020207500">
        <ele>493.00000</ele>
        <time>2019-08-19T13:55:54Z</time>
      </trkpt>
      <trkpt lat="43.59248676" lon="3.019955623">
        <ele>490.00000</ele>
        <time>2019-08-19T13:56:12Z</time>
      </trkpt>
      <trkpt lat="43.59241032" lon="3.019779520">
        <ele>488.00000</ele>
        <time>2019-08-19T13:56:25Z</time>
      </trkpt>
      <trkpt lat="43.59227000" lon="3.019919414">
        <ele>483.00000</ele>
        <time>2019-08-19T13:56:55Z</time>
      </trkpt>
      <trkpt lat="43.59221301" lon="3.020026953">
        <ele>481.00000</ele>
        <time>2019-08-19T13:57:06Z</time>
      </trkpt>
      <trkpt lat="43.59221845" lon="3.020183360">
        <ele>479.00000</ele>
        <time>2019-08-19T13:57:18Z</time>
      </trkpt>
      <trkpt lat="43.59220580" lon="3.020209260">
        <ele>478.00000</ele>
        <time>2019-08-19T13:57:21Z</time>
      </trkpt>
      <trkpt lat="43.59219130" lon="3.020261814">
        <ele>477.00000</ele>
        <time>2019-08-19T13:57:26Z</time>
      </trkpt>
      <trkpt lat="43.59206615" lon="3.020345298">
        <ele>473.00000</ele>
        <time>2019-08-19T13:57:51Z</time>
      </trkpt>
      <trkpt lat="43.59195526" lon="3.020160309">
        <ele>468.00000</ele>
        <time>2019-08-19T13:58:15Z</time>
      </trkpt>
      <trkpt lat="43.59189868" lon="3.019921928">
        <ele>465.00000</ele>
        <time>2019-08-19T13:58:33Z</time>
      </trkpt>
      <trkpt lat="43.59186943" lon="3.019687989">
        <ele>462.00000</ele>
        <time>2019-08-19T13:58:51Z</time>
      </trkpt>
      <trkpt lat="43.59170950" lon="3.019562931">
        <ele>460.00000</ele>
        <time>2019-08-19T13:59:09Z</time>
      </trkpt>
      <trkpt lat="43.59157397" lon="3.019381714">
        <ele>458.00000</ele>
        <time>2019-08-19T13:59:24Z</time>
      </trkpt>
      <trkpt lat="43.59139963" lon="3.019349863">
        <ele>455.00000</ele>
        <time>2019-08-19T13:59:45Z</time>
      </trkpt>
      <trkpt lat="43.59122847" lon="3.019391102">
        <ele>451.00000</ele>
        <time>2019-08-19T14:00:09Z</time>
      </trkpt>
      <trkpt lat="43.59105370" lon="3.019361095">
        <ele>448.00000</ele>
        <time>2019-08-19T14:00:25Z</time>
      </trkpt>
      <trkpt lat="43.59089462" lon="3.019453212">
        <ele>443.00000</ele>
        <time>2019-08-19T14:00:47Z</time>
      </trkpt>
      <trkpt lat="43.59078389" lon="3.019362352">
        <ele>438.00000</ele>
        <time>2019-08-19T14:01:12Z</time>
      </trkpt>
      <trkpt lat="43.59062011" lon="3.019308708">
        <ele>434.00000</ele>
        <time>2019-08-19T14:01:36Z</time>
      </trkpt>
      <trkpt lat="43.59046127" lon="3.019357742">
        <ele>429.00000</ele>
        <time>2019-08-19T14:02:03Z</time>
      </trkpt>
      <trkpt lat="43.59028223" lon="3.019294962">
        <ele>426.00000</ele>
        <time>2019-08-19T14:02:19Z</time>
      </trkpt>
      <trkpt lat="43.59010462" lon="3.019262440">
        <ele>422.00000</ele>
        <time>2019-08-19T14:02:41Z</time>
      </trkpt>
      <trkpt lat="43.58992206" lon="3.019236708">
        <ele>418.00000</ele>
        <time>2019-08-19T14:03:00Z</time>
      </trkpt>
      <trkpt lat="43.58982835" lon="3.019186835">
        <ele>417.00000</ele>
        <time>2019-08-19T14:03:10Z</time>
      </trkpt>
      <trkpt lat="43.58978066" lon="3.019177615">
        <ele>416.00000</ele>
        <time>2019-08-19T14:03:15Z</time>
      </trkpt>
      <trkpt lat="43.58960229" lon="3.019123636">
        <ele>412.00000</ele>
        <time>2019-08-19T14:03:34Z</time>
      </trkpt>
      <trkpt lat="43.58944094" lon="3.019012995">
        <ele>410.00000</ele>
        <time>2019-08-19T14:03:47Z</time>
      </trkpt>
      <trkpt lat="43.58942778" lon="3.019002936">
        <ele>410.00000</ele>
        <time>2019-08-19T14:03:48Z</time>
      </trkpt>
      <trkpt lat="43.58925294" lon="3.018917860">
        <ele>407.00000</ele>
        <time>2019-08-19T14:04:02Z</time>
      </trkpt>
      <trkpt lat="43.58907046" lon="3.018900258">
        <ele>404.00000</ele>
        <time>2019-08-19T14:04:18Z</time>
      </trkpt>
      <trkpt lat="43.58888489" lon="3.018847620">
        <ele>401.00000</ele>
        <time>2019-08-19T14:04:34Z</time>
      </trkpt>
      <trkpt lat="43.58869839" lon="3.018854157">
        <ele>399.00000</ele>
        <time>2019-08-19T14:04:49Z</time>
      </trkpt>
      <trkpt lat="43.58851089" lon="3.018877878">
        <ele>399.00000</ele>
        <time>2019-08-19T14:05:01Z</time>
      </trkpt>
      <trkpt lat="43.58849957" lon="3.018887015">
        <ele>399.00000</ele>
        <time>2019-08-19T14:05:02Z</time>
      </trkpt>
      <trkpt lat="43.58838063" lon="3.018911909">
        <ele>400.00000</ele>
        <time>2019-08-19T14:05:09Z</time>
      </trkpt>
      <trkpt lat="43.58829413" lon="3.018919117">
        <ele>401.00000</ele>
        <time>2019-08-19T14:05:15Z</time>
      </trkpt>
      <trkpt lat="43.58818190" lon="3.018950801">
        <ele>402.00000</ele>
        <time>2019-08-19T14:05:26Z</time>
      </trkpt>
      <trkpt lat="43.58812138" lon="3.018945520">
        <ele>402.00000</ele>
        <time>2019-08-19T14:05:31Z</time>
      </trkpt>
      <trkpt lat="43.58804745" lon="3.018935127">
        <ele>402.00000</ele>
        <time>2019-08-19T14:05:37Z</time>
      </trkpt>
      <trkpt lat="43.58791745" lon="3.018879136">
        <ele>402.00000</ele>
        <time>2019-08-19T14:05:50Z</time>
      </trkpt>
      <trkpt lat="43.58784570" lon="3.018836639">
        <ele>402.00000</ele>
        <time>2019-08-19T14:05:57Z</time>
      </trkpt>
      <trkpt lat="43.58782600" lon="3.018828341">
        <ele>402.00000</ele>
        <time>2019-08-19T14:05:59Z</time>
      </trkpt>
      <trkpt lat="43.58777663" lon="3.018772853">
        <ele>401.00000</ele>
        <time>2019-08-19T14:06:06Z</time>
      </trkpt>
      <trkpt lat="43.58764713" lon="3.018600353">
        <ele>398.00000</ele>
        <time>2019-08-19T14:06:21Z</time>
      </trkpt>
      <trkpt lat="43.58764822" lon="3.018590044">
        <ele>398.00000</ele>
        <time>2019-08-19T14:06:22Z</time>
      </trkpt>
      <trkpt lat="43.58754152" lon="3.018397344">
        <ele>395.00000</ele>
        <time>2019-08-19T14:06:45Z</time>
      </trkpt>
      <trkpt lat="43.58737614" lon="3.018402792">
        <ele>392.00000</ele>
        <time>2019-08-19T14:07:04Z</time>
      </trkpt>
      <trkpt lat="43.58718981" lon="3.018485940">
        <ele>390.00000</ele>
        <time>2019-08-19T14:07:20Z</time>
      </trkpt>
      <trkpt lat="43.58699879" lon="3.018547967">
        <ele>387.00000</ele>
        <time>2019-08-19T14:07:34Z</time>
      </trkpt>
      <trkpt lat="43.58681120" lon="3.018555091">
        <ele>384.00000</ele>
        <time>2019-08-19T14:07:50Z</time>
      </trkpt>
      <trkpt lat="43.58663099" lon="3.018582416">
        <ele>382.00000</ele>
        <time>2019-08-19T14:08:06Z</time>
      </trkpt>
      <trkpt lat="43.58645112" lon="3.018614938">
        <ele>379.00000</ele>
        <time>2019-08-19T14:08:23Z</time>
      </trkpt>
      <trkpt lat="43.58627686" lon="3.018699176">
        <ele>377.00000</ele>
        <time>2019-08-19T14:08:36Z</time>
      </trkpt>
      <trkpt lat="43.58611199" lon="3.018810907">
        <ele>374.00000</ele>
        <time>2019-08-19T14:08:51Z</time>
      </trkpt>
      <trkpt lat="43.58594426" lon="3.018904952">
        <ele>371.00000</ele>
        <time>2019-08-19T14:09:05Z</time>
      </trkpt>
      <trkpt lat="43.58575869" lon="3.018936887">
        <ele>369.00000</ele>
        <time>2019-08-19T14:09:20Z</time>
      </trkpt>
      <trkpt lat="43.58557613" lon="3.018933618">
        <ele>367.00000</ele>
        <time>2019-08-19T14:09:34Z</time>
      </trkpt>
      <trkpt lat="43.58540112" lon="3.018851559">
        <ele>363.00000</ele>
        <time>2019-08-19T14:09:49Z</time>
      </trkpt>
      <trkpt lat="43.58522200" lon="3.018786180">
        <ele>359.00000</ele>
        <time>2019-08-19T14:10:02Z</time>
      </trkpt>
      <trkpt lat="43.58505796" lon="3.018692974">
        <ele>355.00000</ele>
        <time>2019-08-19T14:10:17Z</time>
      </trkpt>
      <trkpt lat="43.58488915" lon="3.018575627">
        <ele>351.00000</ele>
        <time>2019-08-19T14:10:32Z</time>
      </trkpt>
      <trkpt lat="43.58475320" lon="3.018398685">
        <ele>346.00000</ele>
        <time>2019-08-19T14:10:49Z</time>
      </trkpt>
      <trkpt lat="43.58460760" lon="3.018245715">
        <ele>342.00000</ele>
        <time>2019-08-19T14:11:03Z</time>
      </trkpt>
      <trkpt lat="43.58445807" lon="3.018084447">
        <ele>338.00000</ele>
        <time>2019-08-19T14:11:16Z</time>
      </trkpt>
      <trkpt lat="43.58431474" lon="3.017928628">
        <ele>334.00000</ele>
        <time>2019-08-19T14:11:32Z</time>
      </trkpt>
      <trkpt lat="43.58415724" lon="3.017794853">
        <ele>331.00000</ele>
        <time>2019-08-19T14:11:47Z</time>
      </trkpt>
      <trkpt lat="43.58399732" lon="3.017665268">
        <ele>328.00000</ele>
        <time>2019-08-19T14:12:01Z</time>
      </trkpt>
      <trkpt lat="43.58387754" lon="3.017475921">
        <ele>326.00000</ele>
        <time>2019-08-19T14:12:16Z</time>
      </trkpt>
      <trkpt lat="43.58379850" lon="3.017341895">
        <ele>325.00000</ele>
        <time>2019-08-19T14:12:26Z</time>
      </trkpt>
      <trkpt lat="43.58371258" lon="3.017125474">
        <ele>324.00000</ele>
        <time>2019-08-19T14:12:41Z</time>
      </trkpt>
      <trkpt lat="43.58360990" lon="3.016920955">
        <ele>323.00000</ele>
        <time>2019-08-19T14:12:54Z</time>
      </trkpt>
      <trkpt lat="43.58353631" lon="3.016679054">
        <ele>321.00000</ele>
        <time>2019-08-19T14:13:11Z</time>
      </trkpt>
      <trkpt lat="43.58347194" lon="3.016447965">
        <ele>321.00000</ele>
        <time>2019-08-19T14:13:26Z</time>
      </trkpt>
      <trkpt lat="43.58337135" lon="3.016229113">
        <ele>321.00000</ele>
        <time>2019-08-19T14:13:41Z</time>
      </trkpt>
      <trkpt lat="43.58330070" lon="3.015997856">
        <ele>320.00000</ele>
        <time>2019-08-19T14:13:57Z</time>
      </trkpt>
      <trkpt lat="43.58319550" lon="3.015788057">
        <ele>319.00000</ele>
        <time>2019-08-19T14:14:12Z</time>
      </trkpt>
      <trkpt lat="43.58310389" lon="3.015558226">
        <ele>318.00000</ele>
        <time>2019-08-19T14:14:27Z</time>
      </trkpt>
      <trkpt lat="43.58304748" lon="3.015313474">
        <ele>317.00000</ele>
        <time>2019-08-19T14:14:46Z</time>
      </trkpt>
      <trkpt lat="43.58302594" lon="3.015303583">
        <ele>317.00000</ele>
        <time>2019-08-19T14:14:49Z</time>
      </trkpt>
      <trkpt lat="43.58300255" lon="3.015333758">
        <ele>317.00000</ele>
        <time>2019-08-19T14:14:53Z</time>
      </trkpt>
      <trkpt lat="43.58295989" lon="3.015424115">
        <ele>316.00000</ele>
        <time>2019-08-19T14:15:04Z</time>
      </trkpt>
      <trkpt lat="43.58287900" lon="3.015276845">
        <ele>313.00000</ele>
        <time>2019-08-19T14:15:20Z</time>
      </trkpt>
      <trkpt lat="43.58283173" lon="3.015108788">
        <ele>311.00000</ele>
        <time>2019-08-19T14:15:34Z</time>
      </trkpt>
      <trkpt lat="43.58279468" lon="3.014863869">
        <ele>310.00000</ele>
        <time>2019-08-19T14:15:48Z</time>
      </trkpt>
      <trkpt lat="43.58276392" lon="3.014612495">
        <ele>308.00000</ele>
        <time>2019-08-19T14:16:04Z</time>
      </trkpt>
      <trkpt lat="43.58273282" lon="3.014352405">
        <ele>306.00000</ele>
        <time>2019-08-19T14:16:21Z</time>
      </trkpt>
      <trkpt lat="43.58273207" lon="3.014263892">
        <ele>306.00000</ele>
        <time>2019-08-19T14:16:26Z</time>
      </trkpt>
      <trkpt lat="43.58276610" lon="3.014031713">
        <ele>305.00000</ele>
        <time>2019-08-19T14:16:41Z</time>
      </trkpt>
      <trkpt lat="43.58275461" lon="3.013770952">
        <ele>302.00000</ele>
        <time>2019-08-19T14:16:58Z</time>
      </trkpt>
      <trkpt lat="43.58271430" lon="3.013516562">
        <ele>300.00000</ele>
        <time>2019-08-19T14:17:14Z</time>
      </trkpt>
      <trkpt lat="43.58268010" lon="3.013267284">
        <ele>297.00000</ele>
        <time>2019-08-19T14:17:34Z</time>
      </trkpt>
      <trkpt lat="43.58259460" lon="3.013336602">
        <ele>293.00000</ele>
        <time>2019-08-19T14:18:01Z</time>
      </trkpt>
      <trkpt lat="43.58245940" lon="3.013439029">
        <ele>291.00000</ele>
        <time>2019-08-19T14:18:19Z</time>
      </trkpt>
      <trkpt lat="43.58231004" lon="3.013312295">
        <ele>291.00000</ele>
        <time>2019-08-19T14:18:38Z</time>
      </trkpt>
      <trkpt lat="43.58227760" lon="3.013240294">
        <ele>291.00000</ele>
        <time>2019-08-19T14:18:46Z</time>
      </trkpt>
      <trkpt lat="43.58219395" lon="3.013083133">
        <ele>286.00000</ele>
        <time>2019-08-19T14:19:18Z</time>
      </trkpt>
      <trkpt lat="43.58210820" lon="3.013044912">
        <ele>277.00000</ele>
        <time>2019-08-19T14:19:50Z</time>
      </trkpt>
      <trkpt lat="43.58199748" lon="3.013125881">
        <ele>271.00000</ele>
        <time>2019-08-19T14:20:17Z</time>
      </trkpt>
      <trkpt lat="43.58193797" lon="3.013045415">
        <ele>270.00000</ele>
        <time>2019-08-19T14:20:23Z</time>
      </trkpt>
      <trkpt lat="43.58189731" lon="3.013180866">
        <ele>267.00000</ele>
        <time>2019-08-19T14:20:42Z</time>
      </trkpt>
      <trkpt lat="43.58172724" lon="3.013081373">
        <ele>262.00000</ele>
        <time>2019-08-19T14:21:03Z</time>
      </trkpt>
      <trkpt lat="43.58164837" lon="3.012935779">
        <ele>258.00000</ele>
        <time>2019-08-19T14:21:21Z</time>
      </trkpt>
      <trkpt lat="43.58160914" lon="3.012898648">
        <ele>256.00000</ele>
        <time>2019-08-19T14:21:30Z</time>
      </trkpt>
      <trkpt lat="43.58151334" lon="3.012652555">
        <ele>246.00000</ele>
        <time>2019-08-19T14:22:11Z</time>
      </trkpt>
      <trkpt lat="43.58142382" lon="3.012465555">
        <ele>239.00000</ele>
        <time>2019-08-19T14:22:43Z</time>
      </trkpt>
      <trkpt lat="43.58139683" lon="3.012427417">
        <ele>237.00000</ele>
        <time>2019-08-19T14:22:51Z</time>
      </trkpt>
      <trkpt lat="43.58121360" lon="3.012465219">
        <ele>231.00000</ele>
        <time>2019-08-19T14:23:14Z</time>
      </trkpt>
      <trkpt lat="43.58118527" lon="3.012555325">
        <ele>229.00000</ele>
        <time>2019-08-19T14:23:25Z</time>
      </trkpt>
      <trkpt lat="43.58110782" lon="3.012598073">
        <ele>228.00000</ele>
        <time>2019-08-19T14:23:36Z</time>
      </trkpt>
      <trkpt lat="43.58108452" lon="3.012601677">
        <ele>227.00000</ele>
        <time>2019-08-19T14:23:39Z</time>
      </trkpt>
      <trkpt lat="43.58103641" lon="3.012606790">
        <ele>226.00000</ele>
        <time>2019-08-19T14:23:45Z</time>
      </trkpt>
      <trkpt lat="43.58094538" lon="3.012609891">
        <ele>223.00000</ele>
        <time>2019-08-19T14:23:51Z</time>
      </trkpt>
      <trkpt lat="43.58084555" lon="3.012379724">
        <ele>218.00000</ele>
        <time>2019-08-19T14:24:03Z</time>
      </trkpt>
      <trkpt lat="43.58080339" lon="3.012292636">
        <ele>216.00000</ele>
        <time>2019-08-19T14:24:10Z</time>
      </trkpt>
      <trkpt lat="43.58078336" lon="3.012229185">
        <ele>214.00000</ele>
        <time>2019-08-19T14:24:15Z</time>
      </trkpt>
      <trkpt lat="43.58078093" lon="3.012179648">
        <ele>213.00000</ele>
        <time>2019-08-19T14:24:20Z</time>
      </trkpt>
      <trkpt lat="43.58076634" lon="3.011928694">
        <ele>211.00000</ele>
        <time>2019-08-19T14:24:38Z</time>
      </trkpt>
      <trkpt lat="43.58080850" lon="3.011860465">
        <ele>211.00000</ele>
        <time>2019-08-19T14:24:43Z</time>
      </trkpt>
      <trkpt lat="43.58097304" lon="3.011747142">
        <ele>211.00000</ele>
        <time>2019-08-19T14:24:58Z</time>
      </trkpt>
      <trkpt lat="43.58114596" lon="3.011653348">
        <ele>211.00000</ele>
        <time>2019-08-19T14:25:16Z</time>
      </trkpt>
      <trkpt lat="43.58117722" lon="3.011649576">
        <ele>211.00000</ele>
        <time>2019-08-19T14:25:20Z</time>
      </trkpt>
      <trkpt lat="43.58135517" lon="3.011624095">
        <ele>212.00000</ele>
        <time>2019-08-19T14:25:41Z</time>
      </trkpt>
      <trkpt lat="43.58154293" lon="3.011568272">
        <ele>215.00000</ele>
        <time>2019-08-19T14:25:59Z</time>
      </trkpt>
      <trkpt lat="43.58156279" lon="3.011568859">
        <ele>215.00000</ele>
        <time>2019-08-19T14:26:01Z</time>
      </trkpt>
      <trkpt lat="43.58162063" lon="3.011544300">
        <ele>216.00000</ele>
        <time>2019-08-19T14:26:07Z</time>
      </trkpt>
      <trkpt lat="43.58179698" lon="3.011454362">
        <ele>218.00000</ele>
        <time>2019-08-19T14:26:24Z</time>
      </trkpt>
      <trkpt lat="43.58179070" lon="3.011359563">
        <ele>219.00000</ele>
        <time>2019-08-19T14:26:30Z</time>
      </trkpt>
      <trkpt lat="43.58194928" lon="3.011416895">
        <ele>221.00000</ele>
        <time>2019-08-19T14:26:46Z</time>
      </trkpt>
      <trkpt lat="43.58198356" lon="3.011414129">
        <ele>222.00000</ele>
        <time>2019-08-19T14:26:50Z</time>
      </trkpt>
      <trkpt lat="43.58208465" lon="3.011481100">
        <ele>228.00000</ele>
        <time>2019-08-19T14:27:03Z</time>
      </trkpt>
    </trkseg>
  </trk>
</gpx>
